Return to Metar
METAR CYNL 240900Z AUTO 27003KT 9SM SCT140 04/00 A2970 RMK AO1 SLP069
METAR CYNL 240800Z AUTO 29004KT 9SM BKN054 BKN150 03/M00 A2970 RMK AO1 SLP069
METAR CYNL 240700Z AUTO 27003KT 9SM FEW210 04/M00 A2970 RMK AO1 SLP066
METAR CYNL 240600Z AUTO 29004KT 9SM CLR 05/M00 A2969 RMK AO1 SLP063
METAR CYNL 240500Z AUTO 31005KT 9SM CLR 07/M02 A2969 RMK AO1 SLP062
METAR CYNL 240400Z AUTO 33008KT 9SM CLR 08/M02 A2968 RMK AO1 PRESRR SLP059
METAR CYNL 240300Z AUTO 34008G15KT 9SM CLR 10/M01 A2966 RMK AO1 PRESRR SLP049
METAR CYNL 240200Z AUTO 33010G18KT 9SM FEW062 12/M01 A2963 RMK AO1 PRESRR SLP038
METAR CYNL 240100Z AUTO 32011G23KT 9SM CLR 13/M01 A2960 RMK AO1 SLP028
METAR CYNL 240000Z AUTO 31011G23KT 9SM FEW070 13/01 A2959 RMK AO1 PRESRR SLP024
SPECI CYNL 232310Z AUTO 29012G26KT 7SM FEW021 SCT034 BKN044 10/04 A2958 RMK AO1 SLP021
SPECI CYNL 232308Z AUTO 31014G26KT 6SM VV028 10/05 A2958 RMK AO1 SLP021
SPECI CYNL 232305Z AUTO 31017G26KT 2SM FEW023 SCT043 12/04 A2957 RMK AO1 SLP017
METAR CYNL 232300Z AUTO 30015G20KT 9SM FEW043 13/03 A2956 RMK AO1 SLP012
SPECI CYNL 232214Z AUTO 28010G25KT 9SM FEW008 10/04 A2956 RMK AO1 SLP013
METAR CYNL 232200Z AUTO 29016G25KT 9SM FEW041 11/02 A2955 RMK AO1 SLP010
SPECI CYNL 232109Z AUTO 32012G22KT 5SM FEW025 BKN035 10/05 A2954 RMK AO1 SLP009
SPECI CYNL 232108Z AUTO 33012G22KT 2 1/2SM FEW025 BKN037 10/06 A2954 RMK AO1 SLP009
METAR CYNL 232100Z AUTO 32015G22KT 9SM SCT036 11/03 A2953 RMK AO1 SLP003
SPECI CYNL 232035Z AUTO 31013G24KT 9SM FEW021 SCT037 11/04 A2953 RMK AO1 PRESRR SLP003
SPECI CYNL 232033Z AUTO 31015G24KT 9SM VV026 11/05 A2953 RMK AO1 PRESRR SLP003
METAR CYNL 232000Z AUTO 29015G22KT 9SM BKN039 11/03 A2951 RMK AO1 PRESRR SLP999
SPECI CYNL 231925Z AUTO 30017G27KT 3SM FEW011 SCT038 10/05 A2952 RMK AO1 SLP000
SPECI CYNL 231923Z AUTO 30018G27KT 2 1/2SM FEW013 SCT039 10/05 A2951 RMK AO1 SLP999
METAR CYNL 231900Z AUTO 29013G25KT 9SM FEW039 SCT190 12/03 A2949 RMK AO1 SLP990
METAR CYNL 231800Z AUTO 29015G28KT 9SM SCT028 BKN036 11/03 A2948 RMK AO1 SLP986
SPECI CYNL 231753Z AUTO 29018G28KT 9SM FEW022 BKN029 BKN039 11/03 A2948 RMK AO1 SLP985
SPECI CYNL 231750Z AUTO 31012G22KT 9SM FEW022 BKN031 11/04 A2948 RMK AO1 SLP985
SPECI CYNL 231749Z AUTO 31012G22KT 9SM BKN028 11/04 A2948 RMK AO1 SLP985
SPECI CYNL 231748Z AUTO 30013G22KT 9SM SCT023 BKN031 11/04 A2948 RMK AO1 SLP985
SPECI CYNL 231742Z AUTO 30011G23KT 9SM BKN025 BKN230 11/05 A2948 RMK AO1 SLP984
SPECI CYNL 231740Z AUTO 30012G23KT 9SM BKN024 BKN038 11/04 A2948 RMK AO1 SLP985
SPECI CYNL 231739Z AUTO 30014G23KT 9SM SCT023 BKN029 BKN180 11/04 A2948 RMK AO1 SLP985
SPECI CYNL 231713Z AUTO 31009KT 9SM FEW017 SCT024 BKN031 10/06 A2947 RMK AO1 SLP984
SPECI CYNL 231712Z AUTO 30008KT 9SM FEW017 BKN024 09/06 A2947 RMK AO1 SLP984
SPECI CYNL 231707Z AUTO 32008G16KT 9SM FEW017 BKN025 09/06 A2947 RMK AO1 SLP985
SPECI CYNL 231706Z AUTO 31008G16KT 9SM FEW016 BKN024 OVC032 08/06 A2947 RMK AO1 SLP985
SPECI CYNL 231705Z AUTO 31008G16KT 8SM FEW016 BKN025 OVC032 08/06 A2947 RMK AO1 SLP985
SPECI CYNL 231704Z AUTO 31008G16KT 5SM FEW016 SCT024 BKN030 09/06 A2947 RMK AO1 SLP985
SPECI CYNL 231703Z AUTO 31007G16KT 3SM BKN026 09/06 A2947 RMK AO1 SLP985
METAR CYNL 231700Z AUTO 31011KT 2 1/2SM BKN026 BKN038 09/05 A2947 RMK AO1 SLP985
SPECI CYNL 231659Z AUTO 31009G16KT 3SM BKN026 BKN038 09/06 A2947 RMK AO1 SLP985
SPECI CYNL 231658Z AUTO 32007G16KT 3SM FEW019 SCT025 BKN030 09/06 A2947 RMK AO1 SLP984
SPECI CYNL 231657Z AUTO 33008G16KT 3SM FEW019 BKN026 BKN038 09/06 A2947 RMK AO1 SLP984
SPECI CYNL 231655Z AUTO 34010G16KT 2 1/2SM FEW019 SCT024 BKN029 09/06 A2947 RMK AO1 SLP983
SPECI CYNL 231651Z AUTO 32011KT 5SM BKN024 10/06 A2947 RMK AO1 SLP981
SPECI CYNL 231649Z AUTO 31008G15KT 7SM BKN026 11/06 A2947 RMK AO1 SLP980
SPECI CYNL 231648Z AUTO 32010G15KT 9SM SCT025 BKN031 11/05 A2946 RMK AO1 SLP980
SPECI CYNL 231647Z AUTO 32008G15KT 9SM BKN026 11/05 A2946 RMK AO1 SLP979
SPECI CYNL 231626Z AUTO 34009G15KT 9SM SCT024 BKN031 10/05 A2946 RMK AO1 SLP980
SPECI CYNL 231625Z AUTO 33010G15KT 9SM BKN024 OVC031 10/05 A2946 RMK AO1 SLP980
SPECI CYNL 231619Z AUTO 33009G15KT 7SM SCT023 OVC031 09/05 A2946 RMK AO1 SLP980
SPECI CYNL 231611Z AUTO 31009G15KT 9SM BKN024 OVC032 10/05 A2946 RMK AO1 SLP979
METAR CYNL 231600Z AUTO 33008G15KT 9SM OVC026 10/05 A2945 RMK AO1 SLP977
SPECI CYNL 231529Z AUTO 32005KT 9SM OVC025 09/05 A2945 RMK AO1 SLP975
SPECI CYNL 231503Z AUTO 34008KT 9SM BKN024 BKN046 10/04 A2944 RMK AO1 SLP972
METAR CYNL 231500Z AUTO 33007KT 9SM BKN025 BKN046 10/04 A2944 RMK AO1 SLP973
SPECI CYNL 231433Z AUTO 32006KT 9SM BKN029 BKN039 OVC048 09/05 A2944 RMK AO1 SLP974
SPECI CYNL 231432Z AUTO 32005KT 9SM SCT029 BKN039 OVC049 09/05 A2944 RMK AO1 SLP973
SPECI CYNL 231429Z AUTO 33008KT 9SM BKN029 OVC050 09/05 A2944 RMK AO1 SLP973
METAR CYNL 231400Z AUTO 32006KT 9SM FEW021 BKN060 10/05 A2943 RMK AO1 SLP969
METAR CYNL 231300Z AUTO 34009G16KT 9SM FEW019 BKN039 OVC054 08/05 A2943 RMK AO1 PRESRR SLP969
SPECI CYNL 231243Z AUTO 34010KT 9SM SCT018 OVC034 08/05 A2942 RMK AO1 SLP967
SPECI CYNL 231223Z AUTO 35012G19KT 9SM SCT012 BKN016 OVC021 09/07 A2941 RMK AO1 SLP964
METAR CYNL 231200Z AUTO 30008KT 9SM BKN013 BKN021 OVC046 11/09 A2940 RMK AO1 SLP957
SPECI CYNL 231153Z AUTO 29007KT 9SM BKN013 BKN034 OVC049 11/09 A2940 RMK AO1 SLP958
SPECI CYNL 231147Z AUTO 30007KT 9SM SCT014 BKN022 OVC047 11/09 A2940 RMK AO1 SLP957
METAR CYNL 231100Z AUTO 30006KT 9SM FEW034 BKN042 OVC082 11/09 A2938 RMK AO1 SLP952
METAR CYNL 231000Z AUTO 29006KT 9SM BKN080 10/09 A2938 RMK AO1 SLP949
METAR CYNL 230900Z AUTO 28007KT 9SM CLR 10/09 A2937 RMK AO1 SLP944
METAR CYNL 230800Z AUTO 29006KT 9SM CLR 10/09 A2937 RMK AO1 SLP940
METAR CYNL 230700Z AUTO 30006KT 9SM BKN056 11/10 A2936 RMK AO1 SLP936
METAR CYNL 230600Z AUTO 28005KT 9SM BKN035 OVC054 12/11 A2937 RMK AO1 SLP937
METAR CYNL 230500Z AUTO 29005KT 9SM FEW044 BKN056 OVC070 12/11 A2936 RMK AO1 SLP934
METAR CYNL 230400Z AUTO 29004KT 9SM OVC052 12/11 A2935 RMK AO1 SLP931
METAR CYNL 230300Z AUTO 29005KT 9SM SCT060 BKN072 12/11 A2934 RMK AO1 SLP928
METAR CYNL 230200Z AUTO 26005KT 9SM CLR 13/12 A2933 RMK AO1 SLP925
METAR CYNL 230100Z AUTO 26003KT 9SM BKN056 12/10 A2934 RMK AO1 SLP933
METAR CYNL 230000Z AUTO 00000KT 4SM SCT056 OVC068 12/10 A2936 RMK AO1 PRESFR SLP940
SPECI CYNL 222359Z AUTO 00000KT 3SM OVC060 12/10 A2936 RMK AO1 PRESFR SLP941
SPECI CYNL 222357Z AUTO 22002KT 2 1/2SM BKN058 OVC070 12/10 A2936 RMK AO1 SLP943
SPECI CYNL 222353Z AUTO 25002KT 1 3/4SM OVC062 12/10 A2936 RMK AO1 SLP945
SPECI CYNL 222351Z AUTO 27003KT 2 1/2SM OVC064 12/10 A2937 RMK AO1 SLP946
SPECI CYNL 222333Z AUTO 31002KT 3SM OVC062 12/11 A2937 RMK AO1 SLP947
SPECI CYNL 222331Z AUTO 30002KT 2 1/2SM OVC062 12/10 A2937 RMK AO1 SLP948
METAR CYNL 222300Z AUTO 27003KT 5SM OVC062 13/10 A2939 RMK AO1 SLP952
SPECI CYNL 222234Z AUTO 32003KT 9SM SCT009 BKN035 OVC058 14/09 A2938 RMK AO1 SLP953
SPECI CYNL 222232Z AUTO 32003KT 9SM VV009 14/08 A2938 RMK AO1 SLP953
SPECI CYNL 222229Z AUTO 32004KT 9SM VV014 14/08 A2939 RMK AO1 SLP953
SPECI CYNL 222227Z AUTO 32004KT 9SM VV021 14/08 A2939 RMK AO1 SLP954
SPECI CYNL 222226Z AUTO 32004KT 9SM VV025 14/08 A2939 RMK AO1 SLP954
METAR CYNL 222200Z AUTO 29005KT 9SM FEW006 SCT012 BKN047 16/08 A2939 RMK AO1 SLP953
SPECI CYNL 222143Z AUTO 27004KT 9SM FEW006 SCT029 BKN070 17/08 A2938 RMK AO1 SLP952
SPECI CYNL 222141Z AUTO 29004KT 9SM VV021 17/09 A2938 RMK AO1 SLP952
SPECI CYNL 222140Z AUTO 28005KT 9SM VV026 17/09 A2939 RMK AO1 SLP952
SPECI CYNL 222139Z AUTO 27005KT 9SM FEW007 SCT048 BKN070 17/09 A2939 RMK AO1 SLP952
METAR CYNL 222100Z AUTO 25005KT 9SM FEW052 19/07 A2939 RMK AO1 SLP950
METAR CYNL 222000Z AUTO 23007KT 9SM FEW092 SCT140 20/05 A2939 RMK AO1 SLP948
METAR CYNL 221900Z AUTO 18007KT 9SM FEW100 SCT140 20/06 A2940 RMK AO1 PRESFR SLP953
METAR CYNL 221800Z AUTO 19007KT 9SM FEW130 SCT210 20/05 A2942 RMK AO1 PRESFR SLP959
METAR CYNL 221700Z AUTO 16009KT 9SM CLR 20/04 A2945 RMK AO1 PRESFR SLP969
METAR CYNL 221600Z AUTO 19010KT 9SM FEW180 19/02 A2948 RMK AO1 PRESFR SLP979
METAR CYNL 221500Z AUTO 21007KT 9SM CLR 17/04 A2951 RMK AO1 PRESFR SLP990
METAR CYNL 221400Z AUTO 20009KT 9SM CLR 15/04 A2954 RMK AO1 SLP998
METAR CYNL 221300Z AUTO 19006KT 9SM CLR 14/04 A2956 RMK AO1 PRESFR SLP005
METAR CYNL 221200Z AUTO 22003KT 9SM CLR 11/04 A2958 RMK AO1 SLP015
METAR CYNL 221100Z AUTO 22003KT 9SM CLR 07/03 A2960 RMK AO1 SLP023
METAR CYNL 221000Z AUTO 23003KT 9SM CLR 06/04 A2962 RMK AO1 SLP032
METAR CYNL 220900Z AUTO 22003KT 9SM CLR 07/04 A2963 RMK AO1 PRESFR SLP037
METAR CYNL 220800Z AUTO 23004KT 9SM CLR 08/03 A2966 RMK AO1 SLP045
METAR CYNL 220700Z AUTO 20005KT 9SM CLR 09/02 A2966 RMK AO1 SLP046
METAR CYNL 220600Z AUTO 20003KT 9SM CLR 10/03 A2968 RMK AO1 SLP051
METAR CYNL 220500Z AUTO 18003KT 9SM CLR 11/03 A2969 RMK AO1 SLP057
METAR CYNL 220400Z AUTO 14004KT 9SM CLR 12/02 A2970 RMK AO1 SLP061
METAR CYNL 220300Z AUTO 15004KT 9SM CLR 15/02 A2971 RMK AO1 SLP060
METAR CYNL 220200Z AUTO 00000KT 9SM CLR 17/00 A2972 RMK AO1 SLP064
METAR CYNL 220100Z AUTO 04007KT 000V080 9SM SCT090 17/M00 A2974 RMK AO1 SLP069
SPECI CYNL 212301Z AUTO 32007KT 9SM BKN090 16/M01 A2977 RMK AO1 SLP085
METAR CYNL 212300Z AUTO 33005KT 1 1/2SM BKN090 16/M01 A2977 RMK AO1 SLP085
SPECI CYNL 212259Z AUTO 32006KT 3/8SM BKN090 16/M01 A2977 RMK AO1 SLP086
SPECI CYNL 212256Z AUTO 33008KT 1/8SM BKN088 16/M01 A2977 RMK AO1 SLP087
METAR CYNL 212200Z AUTO 00011G16KT 9SM BKN078 16/00 A2978 RMK AO1 SLP089
METAR CYNL 212100Z AUTO 30005KT 9SM FEW058 SCT080 15/00 A2978 RMK AO1 SLP094
METAR CYNL 212000Z AUTO 31006KT 9SM FEW080 15/01 A2980 RMK AO1 SLP098
METAR CYNL 211900Z AUTO 31008KT 9SM FEW052 SCT064 15/01 A2981 RMK AO1 SLP104
METAR CYNL 211800Z AUTO 27009KT 240V300 9SM SCT052 13/01 A2983 RMK AO1 PRESFR SLP113
METAR CYNL 211700Z AUTO 33004KT 9SM BKN056 11/00 A2985 RMK AO1 SLP123
METAR CYNL 211600Z AUTO 32004KT 9SM BKN054 11/01 A2987 RMK AO1 PRESFR SLP127
METAR CYNL 211500Z AUTO 28004KT 9SM FEW048 10/00 A2989 RMK AO1 SLP132
METAR CYNL 211400Z AUTO 26006KT 9SM FEW210 10/00 A2990 RMK AO1 SLP135
METAR CYNL 211300Z AUTO 25006KT 9SM CLR 07/02 A2992 RMK AO1 SLP144
METAR CYNL 211200Z AUTO 25005KT 9SM SCT066 05/02 A2994 RMK AO1 SLP151
METAR CYNL 211100Z AUTO 24004KT 9SM FEW070 04/02 A2994 RMK AO1 SLP153
METAR CYNL 211000Z AUTO 24003KT 9SM OVC064 03/02 A2996 RMK AO1 SLP161
METAR CYNL 210900Z AUTO 25004KT 9SM SCT130 03/02 A2998 RMK AO1 SLP168
METAR CYNL 210800Z AUTO 25004KT 9SM SCT160 03/01 A3000 RMK AO1 SLP173
METAR CYNL 210700Z AUTO 25003KT 9SM FEW170 02/01 A3001 RMK AO1 SLP180
METAR CYNL 210600Z AUTO 25003KT 9SM CLR 03/01 A3003 RMK AO1 PRESFR SLP185
METAR CYNL 210500Z AUTO 25004KT 9SM CLR 04/01 A3005 RMK AO1 SLP193
METAR CYNL 210400Z AUTO 00000KT 9SM BKN054 07/M01 A3007 RMK AO1 SLP195
METAR CYNL 210300Z AUTO 34003KT 9SM OVC049 08/M02 A3008 RMK AO1 SLP200
METAR CYNL 210200Z AUTO 34005KT 9SM OVC046 08/M02 A3009 RMK AO1 SLP201
METAR CYNL 210100Z AUTO 33009G16KT 9SM OVC048 09/M03 A3009 RMK AO1 SLP204
METAR CYNL 210000Z AUTO 34007KT 9SM OVC049 09/M02 A3009 RMK AO1 SLP203
METAR CYNL 202300Z AUTO 32008G17KT 9SM FEW032 08/00 A3010 RMK AO1 WSHFT (22)54 SLP208
SPECI CYNL 202254Z AUTO 33010G15KT 9SM FEW031 09/01 A3010 RMK AO1 WSHFT (22)54 SLP209
SPECI CYNL 202242Z AUTO 02011G18KT 9SM FEW033 SCT056 09/01 A3010 RMK AO1 WSHFT (22)42 SLP207
SPECI CYNL 202208Z AUTO 34010G17KT 9SM SCT037 BKN054 09/01 A3010 RMK AO1 WSHFT (22)08 SLP208
METAR CYNL 202200Z AUTO 30010G17KT 9SM FEW032 SCT042 BKN054 10/01 A3010 RMK AO1 WSHFT (21)57 SLP207
SPECI CYNL 202157Z AUTO 30012KT 9SM FEW032 SCT038 BKN056 09/01 A3010 RMK AO1 WSHFT (21)57 SLP207
METAR CYNL 202100Z AUTO 32007G17KT 9SM BKN044 09/M01 A3010 RMK AO1 SLP207
METAR CYNL 202000Z AUTO 32010G17KT 9SM BKN048 08/M01 A3010 RMK AO1 SLP209
METAR CYNL 201900Z AUTO 35008KT 9SM OVC040 08/M01 A3010 RMK AO1 SLP208
SPECI CYNL 201829Z AUTO 00011G19KT 9SM BKN039 08/M02 A3010 RMK AO1 WSHFT (18)29 SLP207
METAR CYNL 201800Z AUTO 34009G16KT 9SM SCT040 08/M01 A3009 RMK AO1 SLP205
SPECI CYNL 201717Z AUTO 31012G23KT 9SM BKN037 07/M01 A3009 RMK AO1 WSHFT (17)17 SLP205
METAR CYNL 201700Z AUTO 34009G18KT 9SM FEW018 SCT039 07/M01 A3008 RMK AO1 SLP203
METAR CYNL 201600Z AUTO 34008KT 9SM SCT021 06/00 A3008 RMK AO1 SLP202
SPECI CYNL 201552Z AUTO 33009KT 9SM SCT020 05/01 A3008 RMK AO1 SLP202
SPECI CYNL 201546Z AUTO 34010G16KT 9SM VV020 05/01 A3008 RMK AO1 SLP203
METAR CYNL 201500Z AUTO 35012KT 9SM FEW024 06/M02 A3006 RMK AO1 SLP195
SPECI CYNL 201435Z AUTO 34008KT 9SM SCT025 06/M00 A3006 RMK AO1 SLP193
SPECI CYNL 201434Z AUTO 34008KT 9SM BKN025 06/M00 A3006 RMK AO1 SLP193
METAR CYNL 201400Z AUTO 00012KT 9SM FEW029 06/M01 A3006 RMK AO1 SLP192
SPECI CYNL 201320Z AUTO 33009G15KT 9SM SCT023 BKN031 05/M01 A3005 RMK AO1 SLP190
SPECI CYNL 201318Z AUTO 33009G15KT 9SM BKN022 04/M01 A3005 RMK AO1 SLP189
SPECI CYNL 201316Z AUTO 32007G15KT 9SM SCT022 BKN030 04/M01 A3005 RMK AO1 SLP189
SPECI CYNL 201315Z AUTO 32008G15KT 9SM SCT022 BKN025 04/M01 A3005 RMK AO1 SLP189
SPECI CYNL 201311Z AUTO 33007G16KT 9SM BKN022 04/M01 A3005 RMK AO1 SLP188
SPECI CYNL 201310Z AUTO 33009G16KT 9SM SCT022 BKN026 04/M01 A3005 RMK AO1 SLP188
SPECI CYNL 201309Z AUTO 34008G16KT 9SM SCT022 04/M01 A3004 RMK AO1 SLP188
SPECI CYNL 201308Z AUTO 34007G16KT 9SM SCT022 BKN026 05/M01 A3004 RMK AO1 SLP188
METAR CYNL 201300Z AUTO 35011G20KT 9SM BKN023 05/M01 A3004 RMK AO1 SLP186
METAR CYNL 201200Z AUTO 35009G15KT 9SM BKN020 04/M01 A3003 RMK AO1 SLP182
METAR CYNL 201100Z AUTO 00009G15KT 9SM BKN019 04/M01 A3001 RMK AO1 SLP176
SPECI CYNL 201024Z AUTO 34008KT 9SM BKN021 03/M01 A3000 RMK AO1 SLP173
SPECI CYNL 201020Z AUTO 34010G16KT 9SM SCT022 BKN088 03/M01 A3000 RMK AO1 SLP173
SPECI CYNL 201017Z AUTO 34010G16KT 9SM BKN022 03/M01 A3000 RMK AO1 SLP173
SPECI CYNL 201016Z AUTO 34010G16KT 9SM SCT022 BKN088 03/M01 A3000 RMK AO1 SLP173
METAR CYNL 201000Z AUTO 34009KT 9SM BKN021 OVC088 04/M01 A3000 RMK AO1 SLP171
SPECI CYNL 200914Z AUTO 34008G15KT 9SM BKN024 OVC088 04/M00 A2999 RMK AO1 SLP168
SPECI CYNL 200912Z AUTO 34008G15KT 9SM FEW019 BKN025 OVC088 04/M00 A2999 RMK AO1 SLP168
SPECI CYNL 200910Z AUTO 34010G15KT 9SM OVC024 04/M00 A2999 RMK AO1 SLP167
SPECI CYNL 200907Z AUTO 34008KT 9SM FEW019 OVC025 04/M00 A2999 RMK AO1 SLP167
SPECI CYNL 200906Z AUTO 34008G15KT 9SM OVC024 04/M00 A2999 RMK AO1 SLP167
METAR CYNL 200900Z AUTO 33009G16KT 9SM OVC025 04/M00 A2999 RMK AO1 SLP167
SPECI CYNL 200845Z AUTO 34007KT 9SM BKN025 OVC088 04/M00 A2998 RMK AO1 SLP165
SPECI CYNL 200820Z AUTO 35009KT 9SM SCT023 OVC088 04/M01 A2998 RMK AO1 SLP163
SPECI CYNL 200809Z AUTO 35012KT 9SM BKN023 OVC090 04/M01 A2997 RMK AO1 SLP161
SPECI CYNL 200808Z AUTO 35010G16KT 9SM SCT023 BKN026 OVC090 04/M01 A2997 RMK AO1 SLP161
SPECI CYNL 200807Z AUTO 35007KT 9SM BKN024 OVC090 04/M01 A2997 RMK AO1 SLP161
METAR CYNL 200800Z AUTO 35008KT 9SM SCT024 OVC090 04/M01 A2997 RMK AO1 SLP161
SPECI CYNL 200758Z AUTO 34007KT 9SM SCT024 OVC090 04/M01 A2997 RMK AO1 SLP160
SPECI CYNL 200756Z AUTO 34007KT 9SM BKN024 OVC090 04/M01 A2997 RMK AO1 SLP160
METAR CYNL 200700Z AUTO 34008G16KT 9SM OVC088 04/M01 A2996 RMK AO1 SLP155
METAR CYNL 200600Z AUTO 34010G20KT 9SM OVC086 05/M01 A2995 RMK AO1 SLP152
METAR CYNL 200500Z AUTO 35008G16KT 9SM FEW038 SCT084 06/01 A2993 RMK AO1 SLP147
METAR CYNL 200400Z AUTO 00007KT 9SM BKN082 07/M00 A2991 RMK AO1 SLP139
METAR CYNL 200300Z AUTO 35009KT 9SM FEW054 BKN070 08/M01 A2990 RMK AO1 SLP134
METAR CYNL 200200Z AUTO 00015KT 9SM FEW036 BKN058 09/M00 A2989 RMK AO1 SLP129
METAR CYNL 200100Z AUTO 01007KT 9SM FEW025 BKN060 10/M01 A2986 RMK AO1 SLP119
METAR CYNL 200000Z AUTO 00010G17KT 9SM BKN058 10/M01 A2985 RMK AO1 SLP113
SPECI CYNL 192308Z AUTO 34012G20KT 9SM FEW042 SCT180 10/M01 A2984 RMK AO1 WSHFT (23)08 SLP109
METAR CYNL 192300Z AUTO 02009G19KT 9SM FEW044 SCT060 10/M00 A2983 RMK AO1 SLP108
SPECI CYNL 192243Z AUTO 03012G19KT 9SM SCT062 11/M00 A2983 RMK AO1 WSHFT (22)43 PRESRR SLP107
METAR CYNL 192200Z AUTO 35009G17KT 9SM FEW049 SCT060 11/M01 A2982 RMK AO1 PRESRR SLP102
METAR CYNL 192100Z AUTO 01012G19KT 9SM BKN050 11/M01 A2979 RMK AO1 SLP094
METAR CYNL 192000Z AUTO 01013KT 9SM SCT049 12/M01 A2978 RMK AO1 SLP088
SPECI CYNL 191915Z AUTO 34010G20KT 9SM SCT045 12/M01 A2978 RMK AO1 WSHFT (19)15 SLP086
SPECI CYNL 191905Z AUTO 03013KT 9SM SCT045 11/M00 A2977 RMK AO1 WSHFT (19)05 SLP085
METAR CYNL 191900Z AUTO 35006G17KT 9SM SCT042 12/00 A2978 RMK AO1 WSHFT (18)58 SLP086
SPECI CYNL 191858Z AUTO 34011G17KT 9SM SCT042 11/M01 A2977 RMK AO1 WSHFT (18)58 SLP086
SPECI CYNL 191806Z AUTO 02008G17KT 9SM BKN030 OVC036 10/02 A2977 RMK AO1 SLP085
METAR CYNL 191800Z AUTO 01010G17KT 9SM BKN029 OVC036 10/02 A2977 RMK AO1 SLP085
SPECI CYNL 191743Z AUTO 03010G16KT 9SM BKN029 BKN035 OVC140 10/03 A2976 RMK AO1 SLP083
SPECI CYNL 191730Z AUTO 35010G15KT 9SM BKN030 OVC140 10/02 A2976 RMK AO1 SLP081
METAR CYNL 191700Z AUTO 01008G16KT 9SM BKN028 OVC050 10/02 A2976 RMK AO1 WSHFT (16)54 SLP082
SPECI CYNL 191654Z AUTO 04011KT 9SM BKN028 BKN034 OVC050 10/03 A2976 RMK AO1 WSHFT (16)54 SLP080
SPECI CYNL 191651Z AUTO 00009G15KT 9SM BKN029 BKN034 OVC050 10/03 A2976 RMK AO1 SLP080
SPECI CYNL 191649Z AUTO 35010G15KT 9SM BKN030 10/02 A2976 RMK AO1 SLP080
SPECI CYNL 191648Z AUTO 00010G15KT 9SM BKN029 10/02 A2976 RMK AO1 SLP080
SPECI CYNL 191631Z AUTO 01008KT 9SM SCT023 OVC034 10/03 A2976 RMK AO1 SLP080
METAR CYNL 191600Z AUTO 02011G17KT 9SM OVC017 09/04 A2975 RMK AO1 SLP079
METAR CYNL 191500Z AUTO 02011G17KT 9SM BKN016 OVC021 10/04 A2974 RMK AO1 SLP070
SPECI CYNL 191417Z AUTO 03012KT 9SM OVC015 10/05 A2973 RMK AO1 SLP064
METAR CYNL 191400Z AUTO 02010KT 9SM BKN014 OVC058 10/06 A2973 RMK AO1 SLP066
SPECI CYNL 191345Z AUTO 01010G16KT 9SM BKN014 BKN017 10/06 A2973 RMK AO1 SLP063
SPECI CYNL 191332Z AUTO 03010KT 9SM BKN016 11/06 A2973 RMK AO1 SLP062
METAR CYNL 191300Z AUTO 03010KT 9SM CLR 11/06 A2971 RMK AO1 SLP056
METAR CYNL 191200Z AUTO 34003KT 9SM FEW080 11/05 A2971 RMK AO1 SLP054
METAR CYNL 191100Z AUTO 27003KT 9SM SCT092 10/05 A2970 RMK AO1 SLP052
METAR CYNL 191000Z AUTO 29006KT 9SM FEW070 10/04 A2971 RMK AO1 SLP055
METAR CYNL 190900Z AUTO 28007KT 9SM CLR 11/04 A2972 RMK AO1 SLP060
METAR CYNL 190800Z AUTO 27006KT 9SM CLR 11/03 A2973 RMK AO1 SLP063
METAR CYNL 190700Z AUTO 27004KT 9SM CLR 11/03 A2974 RMK AO1 SLP067
METAR CYNL 190600Z AUTO 26004KT 9SM CLR 12/03 A2976 RMK AO1 SLP072
METAR CYNL 190500Z AUTO 27005KT 9SM CLR 14/03 A2977 RMK AO1 SLP075
METAR CYNL 190400Z AUTO 28005KT 9SM CLR 15/03 A2978 RMK AO1 SLP076
METAR CYNL 190300Z AUTO 29005KT 9SM CLR 18/02 A2978 RMK AO1 SLP077
METAR CYNL 190200Z AUTO 29007G17KT 9SM CLR 20/01 A2980 RMK AO1 SLP081
METAR CYNL 190100Z AUTO 28011G16KT 9SM BKN072 20/03 A2980 RMK AO1 SLP084
METAR CYNL 190000Z AUTO 27012G18KT 9SM FEW070 20/02 A2981 RMK AO1 SLP090
SPECI CYNL 182324Z AUTO 30010G17KT 9SM FEW070 21/03 A2982 RMK AO1 WSHFT (23)24 PRESFR SLP097
METAR CYNL 182300Z AUTO 26009G18KT 9SM FEW066 21/03 A2983 RMK AO1 PRESFR SLP100
SPECI CYNL 182242Z AUTO 31011G17KT 9SM FEW066 20/02 A2983 RMK AO1 WSHFT (22)42 SLP104
METAR CYNL 182200Z AUTO 28012KT 9SM FEW064 20/03 A2985 RMK AO1 SLP109
SPECI CYNL 182138Z AUTO 26010G18KT 9SM FEW062 20/04 A2986 RMK AO1 WSHFT (21)38 PRESFR SLP113
METAR CYNL 182100Z AUTO 28010KT 240V310 9SM FEW060 20/04 A2987 RMK AO1 WSHFT (20)54 PRESFR SLP118
SPECI CYNL 182054Z AUTO 24010G19KT 9SM FEW060 20/04 A2987 RMK AO1 WSHFT (20)54 SLP118
SPECI CYNL 182019Z AUTO 29010G19KT 9SM FEW058 19/04 A2988 RMK AO1 WSHFT (20)19 SLP123
METAR CYNL 182000Z AUTO 27008KT 9SM SCT056 19/04 A2989 RMK AO1 SLP125
METAR CYNL 181900Z AUTO 28006G18KT 9SM FEW230 18/04 A2991 RMK AO1 SLP132
METAR CYNL 181800Z AUTO 31006KT 9SM FEW050 18/04 A2992 RMK AO1 SLP135
METAR CYNL 181700Z AUTO 29008KT 9SM FEW048 17/04 A2994 RMK AO1 SLP141
METAR CYNL 181600Z AUTO 26008KT 9SM CLR 16/04 A2995 RMK AO1 SLP144
METAR CYNL 181500Z AUTO 27008KT 9SM CLR 15/05 A2996 RMK AO1 SLP146
METAR CYNL 181400Z AUTO 27006KT 9SM CLR 14/04 A2998 RMK AO1 SLP149
METAR CYNL 181300Z AUTO 28005KT 9SM CLR 12/06 A2999 RMK AO1 SLP155
METAR CYNL 181200Z AUTO 25005KT 9SM CLR 07/05 A2998 RMK AO1 SLP154
METAR CYNL 181100Z AUTO 25004KT 9SM CLR 05/05 A2998 RMK AO1 SLP156
SPECI CYNL 181020Z AUTO 26004KT 5SM CLR 04/04 A2998 RMK AO1 SLP158
SPECI CYNL 181019Z AUTO 26004KT 2 1/2SM CLR 04/04 A2998 RMK AO1 SLP158
SPECI CYNL 181018Z AUTO 26004KT 1 3/4SM CLR 04/04 A2998 RMK AO1 SLP158
SPECI CYNL 181017Z AUTO 26004KT 1 1/4SM CLR 04/04 A2998 RMK AO1 SLP158
SPECI CYNL 181016Z AUTO 26004KT 3/4SM CLR 03/03 A2998 RMK AO1 SLP158
SPECI CYNL 181013Z AUTO 26003KT 1/4SM CLR 03/03 A2998 RMK AO1 SLP159
SPECI CYNL 181006Z AUTO 25003KT 1/8SM CLR 03/03 A2998 RMK AO1 SLP159
SPECI CYNL 181004Z AUTO 26003KT 1/4SM CLR 03/03 A2998 RMK AO1 SLP159
METAR CYNL 181000Z AUTO 24002KT 0SM CLR 03/03 A2998 RMK AO1 SLP159
SPECI CYNL 180951Z AUTO 22003KT 0SM CLR 04/04 A2998 RMK AO1 SLP159
SPECI CYNL 180950Z AUTO 23002KT 1/2SM CLR 04/04 A2998 RMK AO1 SLP159
SPECI CYNL 180936Z AUTO 25002KT 8SM CLR 04/04 A2999 RMK AO1 SLP161
SPECI CYNL 180935Z AUTO 25002KT 2SM CLR 04/04 A2999 RMK AO1 SLP161
SPECI CYNL 180933Z AUTO 26003KT 1/4SM CLR 04/04 A2999 RMK AO1 SLP161
SPECI CYNL 180920Z AUTO 00000KT 1/8SM CLR 04/04 A2999 RMK AO1 SLP162
SPECI CYNL 180919Z AUTO 00000KT 3/4SM CLR 04/04 A2999 RMK AO1 SLP162
METAR CYNL 180900Z AUTO 00000KT 9SM CLR 04/03 A2999 RMK AO1 SLP162
SPECI CYNL 180815Z AUTO 00000KT 6SM CLR 05/05 A2998 RMK AO1 SLP160
SPECI CYNL 180813Z AUTO 30002KT 5/8SM CLR 05/05 A2998 RMK AO1 SLP160
SPECI CYNL 180812Z AUTO 30002KT 3/4SM CLR 05/05 A2998 RMK AO1 SLP160
METAR CYNL 180800Z AUTO 31003KT 9SM CLR 05/04 A2998 RMK AO1 SLP159
SPECI CYNL 180748Z AUTO 28003KT 240V310 9SM CLR 04/04 A2997 RMK AO1 SLP159
SPECI CYNL 180747Z AUTO VRB03KT 1 3/4SM CLR 04/04 A2997 RMK AO1 SLP159
SPECI CYNL 180746Z AUTO VRB03KT 3/8SM CLR 04/04 A2997 RMK AO1 SLP159
SPECI CYNL 180744Z AUTO 29003KT 1/8SM CLR 04/04 A2997 RMK AO1 SLP159
SPECI CYNL 180743Z AUTO 28002KT 1/4SM CLR 05/05 A2997 RMK AO1 SLP158
SPECI CYNL 180728Z AUTO 28002KT 3SM CLR 04/04 A2997 RMK AO1 SLP157
SPECI CYNL 180727Z AUTO 28002KT 1 1/2SM CLR 04/04 A2997 RMK AO1 SLP157
SPECI CYNL 180726Z AUTO 28002KT 1 1/4SM CLR 04/04 A2997 RMK AO1 SLP157
SPECI CYNL 180725Z AUTO 28002KT 2SM CLR 05/04 A2997 RMK AO1 SLP157
METAR CYNL 180700Z AUTO 00000KT 9SM CLR 05/05 A2997 RMK AO1 SLP156
SPECI CYNL 180630Z AUTO 00000KT 9SM CLR 06/05 A2996 RMK AO1 SLP155
SPECI CYNL 180629Z AUTO 00000KT 2SM CLR 06/05 A2996 RMK AO1 SLP155
SPECI CYNL 180627Z AUTO 00000KT 1 1/4SM CLR 06/05 A2996 RMK AO1 SLP155
METAR CYNL 180600Z AUTO 35003KT 9SM CLR 06/04 A2995 RMK AO1 SLP152
METAR CYNL 180500Z AUTO VRB02KT 9SM CLR 08/05 A2994 RMK AO1 SLP148
METAR CYNL 180400Z AUTO 04004KT 9SM CLR 11/04 A2993 RMK AO1 SLP144
METAR CYNL 180300Z AUTO 06005KT 9SM CLR 14/04 A2992 RMK AO1 SLP138
METAR CYNL 180200Z AUTO 10008KT 9SM CLR 14/04 A2991 RMK AO1 SLP131
METAR CYNL 180100Z AUTO 08009G16KT 9SM CLR 15/05 A2989 RMK AO1 SLP126
METAR CYNL 180000Z AUTO 03010G18KT 9SM FEW045 16/05 A2988 RMK AO1 SLP120
SPECI CYNL 172333Z AUTO 03015KT 9SM FEW041 16/05 A2987 RMK AO1 WSHFT (23)33 SLP117
SPECI CYNL 172326Z AUTO 08011G17KT 9SM FEW041 16/06 A2987 RMK AO1 WSHFT (23)26 SLP116
METAR CYNL 172300Z AUTO 06012G17KT 9SM CLR 16/05 A2986 RMK AO1 SLP114
METAR CYNL 172200Z AUTO 05014G19KT 9SM SCT038 16/06 A2985 RMK AO1 SLP109
SPECI CYNL 172138Z AUTO 02013G19KT 9SM SCT037 15/06 A2983 RMK AO1 WSHFT (21)38 SLP106
SPECI CYNL 172131Z AUTO 07011G18KT 9SM FEW036 15/06 A2983 RMK AO1 WSHFT (21)31 SLP105
SPECI CYNL 172125Z AUTO 02013KT 9SM FEW035 15/06 A2983 RMK AO1 WSHFT (21)25 SLP104
SPECI CYNL 172104Z AUTO 02013G18KT 9SM FEW034 15/06 A2983 RMK AO1 WSHFT (21)04 SLP103
METAR CYNL 172100Z AUTO 05012G18KT 9SM SCT033 15/06 A2983 RMK AO1 SLP103
SPECI CYNL 172033Z AUTO 03010G19KT 9SM BKN030 14/07 A2982 RMK AO1 SLP102
SPECI CYNL 172027Z AUTO 04011G17KT 9SM BKN029 14/07 A2982 RMK AO1 SLP100
METAR CYNL 172000Z AUTO 05011G17KT 9SM FEW027 13/07 A2981 RMK AO1 SLP098
METAR CYNL 171900Z AUTO 06011G18KT 9SM SCT013 BKN160 11/06 A2980 RMK AO1 PRESRR SLP095
SPECI CYNL 171854Z AUTO 05012KT 9SM SCT013 BKN160 11/06 A2979 RMK AO1 PRESRR SLP092
SPECI CYNL 171850Z AUTO 05012KT 9SM SCT012 BKN018 BKN160 10/06 A2979 RMK AO1 PRESRR SLP091
SPECI CYNL 171841Z AUTO 03011G17KT 9SM FEW009 BKN012 BKN021 10/08 A2978 RMK AO1 PRESRR SLP089
SPECI CYNL 171829Z AUTO 02009KT 9SM FEW010 BKN014 BKN017 10/08 A2978 RMK AO1 PRESRR SLP088
SPECI CYNL 171816Z AUTO 02008KT 9SM FEW010 OVC015 10/08 A2977 RMK AO1 PRESRR SLP086
SPECI CYNL 171815Z AUTO 02009KT 9SM OVC014 10/08 A2977 RMK AO1 PRESRR SLP085
METAR CYNL 171800Z AUTO 05011G16KT 9SM OVC016 10/07 A2976 RMK AO1 PRESRR SLP082
SPECI CYNL 171739Z AUTO 06011G17KT 9SM SCT011 OVC016 09/07 A2976 RMK AO1 PRESRR SLP080
METAR CYNL 171700Z AUTO 05013G18KT 9SM FEW006 SCT008 OVC010 08/06 A2973 RMK AO1 PRESRR SLP073
SPECI CYNL 171657Z AUTO 04012G18KT 9SM SCT006 OVC010 08/06 A2973 RMK AO1 PRESRR SLP072
METAR CYNL 171600Z AUTO 06014G21KT 9SM OVC008 08/07 A2970 RMK AO1 PRESRR SLP061
METAR CYNL 171500Z AUTO 03014G20KT 9SM OVC007 08/07 A2967 RMK AO1 SLP050
SPECI CYNL 171424Z AUTO 04014G20KT 3SM BKN006 BKN011 OVC015 08/08 A2965 RMK AO1 PRESRR SLP046
SPECI CYNL 171409Z AUTO 03010KT 2SM BKN006 BKN014 OVC019 08/08 A2965 RMK AO1 PRESRR SLP043
SPECI CYNL 171401Z AUTO 04008G19KT 1 3/4SM BKN006 BKN018 OVC021 08/08 A2964 RMK AO1 PRESRR SLP042
METAR CYNL 171400Z AUTO 04009G20KT 1 3/4SM SCT006 BKN014 BKN018 08/08 A2964 RMK AO1 PRESRR SLP042
SPECI CYNL 171358Z AUTO 05010G20KT 1 1/2SM SCT006 BKN014 BKN019 08/08 A2965 RMK AO1 PRESRR SLP042
SPECI CYNL 171352Z AUTO 05013G20KT 1SM SCT005 BKN012 BKN018 08/08 A2964 RMK AO1 PRESRR SLP042
SPECI CYNL 171342Z AUTO 03011KT 1SM BKN006 BKN012 OVC017 08/08 A2964 RMK AO1 PRESRR SLP040
SPECI CYNL 171341Z AUTO 03010G16KT 1SM VV015 08/08 A2964 RMK AO1 PRESRR SLP040
SPECI CYNL 171334Z AUTO 03010G17KT 1 1/4SM BKN006 BKN008 OVC012 08/08 A2964 RMK AO1 PRESRR SLP039
SPECI CYNL 171329Z AUTO 03011G17KT 1 3/4SM BKN005 BKN008 OVC012 08/08 A2963 RMK AO1 PRESRR SLP038
SPECI CYNL 171328Z AUTO 03009KT 2SM BKN005 BKN008 OVC012 08/08 A2963 RMK AO1 PRESRR SLP038
SPECI CYNL 171325Z AUTO 04007KT 3SM BKN005 BKN008 OVC013 08/08 A2963 RMK AO1 PRESRR SLP037
SPECI CYNL 171322Z AUTO 03007KT 2SM BKN005 BKN008 OVC012 08/08 A2963 RMK AO1 PRESRR SLP037
SPECI CYNL 171320Z AUTO 04010KT 1 1/2SM BKN006 BKN008 OVC012 08/08 A2963 RMK AO1 PRESRR SLP036
SPECI CYNL 171317Z AUTO 03009KT 1 1/4SM SCT005 BKN007 OVC011 08/08 A2963 RMK AO1 PRESRR SLP036
SPECI CYNL 171314Z AUTO 04008KT 1 1/2SM SCT006 BKN008 OVC011 08/08 A2963 RMK AO1 PRESRR SLP036
SPECI CYNL 171310Z AUTO 04010G17KT 1 1/4SM BKN007 OVC011 08/08 A2963 RMK AO1 PRESRR SLP036
SPECI CYNL 171305Z AUTO 05009G17KT 1 3/4SM BKN007 BKN009 OVC011 08/08 A2962 RMK AO1 PRESRR SLP034
SPECI CYNL 171304Z AUTO 05008G17KT 2 1/2SM BKN007 OVC011 08/08 A2962 RMK AO1 PRESRR SLP034
METAR CYNL 171300Z AUTO 05010G17KT 3SM BKN007 BKN009 OVC012 08/08 A2962 RMK AO1 PRESRR SLP033
SPECI CYNL 171254Z AUTO 05012KT 3SM BKN007 OVC012 08/08 A2962 RMK AO1 PRESRR SLP032
SPECI CYNL 171251Z AUTO 04013KT 2 1/2SM BKN007 OVC017 08/08 A2961 RMK AO1 PRESRR SLP031
SPECI CYNL 171248Z AUTO 04012KT 3SM BKN007 OVC015 08/08 A2961 RMK AO1 PRESRR SLP031
SPECI CYNL 171244Z AUTO 04010G16KT 2 1/2SM BKN007 BKN012 OVC015 08/08 A2961 RMK AO1 PRESRR SLP030
SPECI CYNL 171242Z AUTO 04007KT 3SM BKN007 BKN012 OVC015 08/08 A2961 RMK AO1 PRESRR SLP030
SPECI CYNL 171233Z AUTO 04009G16KT 2 1/2SM SCT007 BKN009 OVC017 08/08 A2961 RMK AO1 PRESRR SLP029
SPECI CYNL 171232Z AUTO 05008G16KT 3SM SCT007 BKN009 OVC017 08/08 A2961 RMK AO1 PRESRR SLP029
SPECI CYNL 171230Z AUTO 05009G16KT 2 1/2SM SCT007 BKN009 OVC017 08/08 A2961 RMK AO1 PRESRR SLP029
SPECI CYNL 171226Z AUTO 05010G16KT 2SM SCT007 BKN012 OVC017 08/08 A2961 RMK AO1 PRESRR SLP028
SPECI CYNL 171225Z AUTO 05009G16KT 1 3/4SM FEW008 SCT009 BKN012 08/08 A2960 RMK AO1 PRESRR SLP028
SPECI CYNL 171220Z AUTO 05010G16KT 2SM FEW007 SCT009 BKN012 08/08 A2960 RMK AO1 PRESRR SLP027
SPECI CYNL 171217Z AUTO 05010G17KT 1 3/4SM FEW007 SCT009 BKN013 08/08 A2960 RMK AO1 PRESRR SLP027
SPECI CYNL 171215Z AUTO 05010G17KT 2SM FEW007 SCT009 BKN013 08/08 A2960 RMK AO1 PRESRR SLP027
SPECI CYNL 171214Z AUTO 05009G19KT 1 3/4SM FEW007 SCT009 BKN013 08/08 A2960 RMK AO1 PRESRR SLP027
SPECI CYNL 171211Z AUTO 05013G19KT 2 1/2SM FEW007 SCT009 BKN013 08/08 A2960 RMK AO1 PRESRR SLP026
SPECI CYNL 171204Z AUTO 04014KT 5SM SCT007 BKN012 OVC016 08/08 A2960 RMK AO1 PRESRR SLP025
SPECI CYNL 171203Z AUTO 04012G18KT 6SM SCT007 BKN009 BKN013 08/08 A2960 RMK AO1 PRESRR SLP025
METAR CYNL 171200Z AUTO 04011G19KT 5SM SCT008 BKN013 OVC017 08/08 A2960 RMK AO1 PRESRR SLP025
SPECI CYNL 171158Z AUTO 04012G19KT 4SM FEW007 SCT009 BKN014 08/08 A2960 RMK AO1 PRESRR SLP024
SPECI CYNL 171155Z AUTO 04009G19KT 3SM FEW007 BKN009 BKN015 08/08 A2959 RMK AO1 SLP023
SPECI CYNL 171154Z AUTO 04010G19KT 2SM BKN008 OVC016 08/08 A2959 RMK AO1 SLP023
SPECI CYNL 171152Z AUTO 04012G19KT 1 3/4SM BKN008 BKN013 OVC018 08/08 A2959 RMK AO1 SLP023
SPECI CYNL 171151Z AUTO 04010G19KT 2 1/2SM BKN008 BKN014 OVC018 08/08 A2959 RMK AO1 SLP023
SPECI CYNL 171140Z AUTO 05009KT 3SM BKN009 BKN012 OVC017 08/08 A2959 RMK AO1 SLP020
SPECI CYNL 171137Z AUTO 04009KT 2 1/2SM BKN008 BKN012 OVC017 08/08 A2959 RMK AO1 SLP020
SPECI CYNL 171134Z AUTO 04011KT 3SM BKN008 BKN012 OVC016 08/08 A2958 RMK AO1 SLP020
SPECI CYNL 171129Z AUTO 04010KT 2 1/2SM BKN008 BKN011 OVC016 08/08 A2958 RMK AO1 SLP020
SPECI CYNL 171119Z AUTO 04012KT 3SM BKN008 BKN012 OVC016 08/08 A2958 RMK AO1 SLP017
SPECI CYNL 171118Z AUTO 04010G16KT 2 1/2SM SCT008 BKN010 BKN012 08/08 A2958 RMK AO1 SLP017
SPECI CYNL 171117Z AUTO 05009KT 2 1/2SM SCT007 BKN009 BKN012 08/08 A2958 RMK AO1 SLP017
SPECI CYNL 171110Z AUTO 03010KT 7SM SCT007 BKN010 BKN013 08/08 A2957 RMK AO1 SLP016
SPECI CYNL 171107Z AUTO 04009G15KT 7SM BKN007 BKN010 OVC016 08/08 A2957 RMK AO1 SLP016
METAR CYNL 171100Z AUTO 04008KT 3SM SCT007 BKN010 BKN016 08/08 A2957 RMK AO1 SLP015
SPECI CYNL 171059Z AUTO 04010KT 3SM SCT007 BKN010 BKN016 08/08 A2957 RMK AO1 SLP014
SPECI CYNL 171057Z AUTO 03009KT 2 1/2SM SCT007 BKN010 BKN016 08/08 A2957 RMK AO1 SLP014
SPECI CYNL 171054Z AUTO 04011KT 2SM BKN007 BKN016 OVC021 08/08 A2957 RMK AO1 SLP013
SPECI CYNL 171050Z AUTO 04010G16KT 2 1/2SM SCT007 BKN012 BKN016 08/08 A2957 RMK AO1 SLP013
SPECI CYNL 171047Z AUTO 04010G16KT 2SM BKN007 BKN016 OVC021 08/08 A2956 RMK AO1 SLP013
SPECI CYNL 171046Z AUTO 04012KT 1 3/4SM SCT007 BKN012 BKN017 08/08 A2956 RMK AO1 SLP013
SPECI CYNL 171045Z AUTO 03011KT 1 1/2SM BKN007 BKN016 OVC026 08/08 A2956 RMK AO1 SLP012
SPECI CYNL 171043Z AUTO 03011G18KT 1 1/2SM SCT007 BKN012 BKN016 08/08 A2956 RMK AO1 SLP012
SPECI CYNL 171041Z AUTO 04009G18KT 1 1/2SM VV020 08/08 A2956 RMK AO1 SLP012
SPECI CYNL 171037Z AUTO 03011G18KT 1 1/4SM BKN007 BKN016 OVC026 08/08 A2956 RMK AO1 SLP011
SPECI CYNL 171035Z AUTO 03011G18KT 1 3/4SM BKN007 BKN014 OVC026 08/08 A2956 RMK AO1 SLP011
SPECI CYNL 171034Z AUTO 03012G18KT 2 1/2SM BKN007 BKN011 OVC022 08/08 A2956 RMK AO1 SLP011
SPECI CYNL 171008Z AUTO 02008KT 3SM BKN006 OVC009 09/09 A2955 RMK AO1 SLP008
METAR CYNL 171000Z AUTO 03007KT 2 1/2SM BKN006 BKN009 OVC014 09/09 A2955 RMK AO1 SLP007
SPECI CYNL 170937Z AUTO 02009G15KT 3SM BKN007 OVC014 09/09 A2954 RMK AO1 SLP004
SPECI CYNL 170934Z AUTO 04011G16KT 2 1/2SM BKN007 OVC010 09/09 A2954 RMK AO1 SLP004
SPECI CYNL 170910Z AUTO 01010KT 3SM BKN007 OVC017 09/09 A2953 RMK AO1 SLP001
SPECI CYNL 170906Z AUTO 02009KT 2 1/2SM FEW006 BKN008 OVC017 09/09 A2953 RMK AO1 SLP001
SPECI CYNL 170905Z AUTO 02009KT 3SM BKN008 OVC017 09/09 A2953 RMK AO1 SLP000
SPECI CYNL 170902Z AUTO 03009KT 3SM SCT008 BKN012 OVC018 09/09 A2953 RMK AO1 SLP000
SPECI CYNL 170901Z AUTO 02008KT 3SM BKN008 OVC018 09/09 A2953 RMK AO1 SLP000
METAR CYNL 170900Z AUTO 03008G16KT 3SM SCT008 BKN011 BKN017 09/09 A2953 RMK AO1 SLP000
SPECI CYNL 170859Z AUTO 03008G16KT 3SM SCT008 BKN018 OVC023 09/09 A2953 RMK AO1 SLP998
SPECI CYNL 170858Z AUTO 02008G16KT 3SM FEW006 SCT008 BKN013 09/09 A2953 RMK AO1 SLP997
SPECI CYNL 170857Z AUTO 02008G16KT 3SM SCT008 BKN016 OVC022 09/09 A2953 RMK AO1 PRESRR SLP997
SPECI CYNL 170855Z AUTO 03009G16KT 2 1/2SM SCT008 BKN018 OVC023 09/09 A2953 RMK AO1 PRESRR SLP997
SPECI CYNL 170854Z AUTO 03009G16KT 3SM FEW007 BKN011 OVC022 09/09 A2953 RMK AO1 PRESRR SLP997
SPECI CYNL 170853Z AUTO 03009G16KT 3SM FEW007 SCT010 BKN016 09/09 A2953 RMK AO1 PRESRR SLP996
SPECI CYNL 170844Z AUTO 02008KT 2 1/2SM FEW008 SCT012 OVC022 09/09 A2952 RMK AO1 PRESRR SLP995
SPECI CYNL 170842Z AUTO 03008KT 3SM SCT008 BKN018 OVC022 09/09 A2952 RMK AO1 PRESRR SLP995
SPECI CYNL 170834Z AUTO 02009G16KT 2 1/2SM SCT007 BKN018 OVC022 09/09 A2952 RMK AO1 PRESRR SLP995
SPECI CYNL 170833Z AUTO 02009G16KT 2 1/2SM SCT007 BKN013 OVC022 09/09 A2952 RMK AO1 PRESRR SLP995
SPECI CYNL 170832Z AUTO 02009G16KT 2 1/2SM SCT007 BKN017 OVC022 09/09 A2952 RMK AO1 PRESRR SLP994
SPECI CYNL 170829Z AUTO 03011G16KT 3SM FEW006 SCT008 BKN013 09/09 A2952 RMK AO1 PRESRR SLP994
SPECI CYNL 170828Z AUTO 03010G16KT 3SM VV020 09/09 A2952 RMK AO1 PRESRR SLP994
SPECI CYNL 170827Z AUTO 02010G16KT 3SM SCT006 BKN008 OVC022 09/09 A2952 RMK AO1 PRESRR SLP994
SPECI CYNL 170814Z AUTO 01006KT 2 1/2SM SCT006 BKN009 BKN017 10/10 A2952 RMK AO1 PRESRR SLP992
SPECI CYNL 170804Z AUTO 01010KT 3SM SCT006 BKN009 OVC031 10/10 A2951 RMK AO1 PRESRR SLP991
METAR CYNL 170800Z AUTO 02007KT 3SM SCT006 BKN010 OVC031 10/10 A2951 RMK AO1 PRESRR SLP990
SPECI CYNL 170758Z AUTO 02007KT 3SM SCT006 BKN014 OVC031 10/10 A2951 RMK AO1 PRESRR SLP990
SPECI CYNL 170756Z AUTO 02007KT 2 1/2SM SCT006 BKN014 OVC031 10/10 A2951 RMK AO1 SLP989
SPECI CYNL 170754Z AUTO 02008KT 2 1/2SM SCT006 BKN009 OVC030 10/10 A2951 RMK AO1 SLP989
SPECI CYNL 170753Z AUTO 02008KT 2 1/2SM SCT006 BKN010 OVC030 10/10 A2951 RMK AO1 SLP989
SPECI CYNL 170751Z AUTO 02010KT 2 1/2SM BKN006 BKN014 OVC029 10/10 A2951 RMK AO1 SLP989
SPECI CYNL 170749Z AUTO 03011KT 3SM BKN006 BKN015 OVC028 10/10 A2951 RMK AO1 SLP988
SPECI CYNL 170743Z AUTO 02008KT 2SM BKN006 BKN021 OVC029 10/10 A2950 RMK AO1 SLP987
SPECI CYNL 170741Z AUTO 03009KT 2 1/2SM SCT006 BKN015 BKN021 10/10 A2950 RMK AO1 SLP987
SPECI CYNL 170740Z AUTO 03009KT 3SM SCT006 BKN015 BKN021 10/10 A2950 RMK AO1 SLP987
SPECI CYNL 170736Z AUTO 03009G16KT 2 1/2SM FEW004 SCT006 BKN015 10/10 A2950 RMK AO1 SLP986
SPECI CYNL 170735Z AUTO 03010G16KT 2 1/2SM FEW004 BKN006 BKN016 10/10 A2950 RMK AO1 SLP986
SPECI CYNL 170734Z AUTO 03012KT 3SM FEW004 BKN006 BKN015 10/10 A2950 RMK AO1 SLP986
SPECI CYNL 170730Z AUTO 03009G17KT 2SM SCT004 BKN006 BKN013 10/10 A2950 RMK AO1 SLP985
SPECI CYNL 170729Z AUTO 02010G17KT 1 3/4SM SCT004 BKN006 OVC021 10/10 A2950 RMK AO1 SLP985
SPECI CYNL 170725Z AUTO 03011G17KT 2SM SCT004 BKN005 OVC022 11/11 A2950 RMK AO1 SLP984
SPECI CYNL 170721Z AUTO 02007KT 1 3/4SM SCT005 BKN009 OVC022 11/11 A2949 RMK AO1 SLP983
SPECI CYNL 170718Z AUTO 05008KT 2SM FEW003 SCT005 BKN009 11/11 A2949 RMK AO1 SLP982
SPECI CYNL 170716Z AUTO 05010KT 1 1/2SM SCT004 BKN006 BKN015 11/11 A2949 RMK AO1 SLP982
SPECI CYNL 170710Z AUTO 04007KT 1 1/4SM SCT004 BKN006 BKN010 11/11 A2949 RMK AO1 WSHFT (06)56 SLP982
SPECI CYNL 170707Z AUTO 02009G16KT 1 1/2SM SCT004 BKN006 BKN010 12/12 A2949 RMK AO1 WSHFT (06)56 SLP981
SPECI CYNL 170704Z AUTO 01007G17KT 1SM FEW003 SCT006 BKN010 12/12 A2949 RMK AO1 WSHFT (06)56 SLP981
SPECI CYNL 170703Z AUTO 34013G17KT 310V010 3/4SM FEW003 SCT006 BKN010 12/12 A2949 RMK AO1 WSHFT (06)56 SLP981
METAR CYNL 170700Z AUTO 33013G17KT 290V010 1/2SM FEW004 SCT007 BKN010 12/12 A2949 RMK AO1 WSHFT (06)56 SLP980
SPECI CYNL 170659Z AUTO 33013G17KT 290V010 1/2SM SCT006 BKN010 OVC015 12/12 A2949 RMK AO1 WSHFT (06)56 SLP980
SPECI CYNL 170658Z AUTO 33013G18KT 290V000 1/2SM SCT006 BKN009 OVC015 12/12 A2949 RMK AO1 WSHFT (06)56 SLP980
SPECI CYNL 170656Z AUTO 35012G18KT 1 1/4SM SCT006 BKN009 OVC015 12/12 A2948 RMK AO1 WSHFT (06)56 SLP978
SPECI CYNL 170653Z AUTO 30008G19KT 2SM SCT006 BKN010 OVC016 12/12 A2948 RMK AO1 SLP976
SPECI CYNL 170652Z AUTO 29009G19KT 2SM SCT006 BKN009 OVC016 12/12 A2948 RMK AO1 SLP976
SPECI CYNL 170651Z AUTO 29011G19KT 1 3/4SM FEW006 BKN009 BKN012 12/12 A2948 RMK AO1 SLP976
SPECI CYNL 170649Z AUTO 30010G19KT 2 1/2SM FEW006 BKN009 BKN016 12/12 A2948 RMK AO1 SLP976
SPECI CYNL 170647Z AUTO 30010G19KT 3SM FEW007 BKN009 BKN016 12/12 A2948 RMK AO1 SLP976
SPECI CYNL 170644Z AUTO 29012G24KT 2 1/2SM FEW008 SCT010 BKN012 12/12 A2947 RMK AO1 SLP975
SPECI CYNL 170642Z AUTO 29010G24KT 3SM FEW008 SCT010 BKN012 12/12 A2947 RMK AO1 SLP975
SPECI CYNL 170637Z AUTO 29011G24KT 2SM FEW008 BKN011 OVC022 12/12 A2948 RMK AO1 SLP976
SPECI CYNL 170630Z AUTO 29011G19KT 1 3/4SM BKN010 OVC014 12/12 A2948 RMK AO1 SLP976
SPECI CYNL 170629Z AUTO 29010G19KT 2 1/2SM BKN010 OVC014 12/12 A2948 RMK AO1 SLP976
SPECI CYNL 170612Z AUTO 29009G19KT 4SM BKN011 OVC040 13/12 A2948 RMK AO1 SLP976
METAR CYNL 170600Z AUTO 29008G16KT 9SM FEW012 OVC042 13/12 A2948 RMK AO1 SLP976
METAR CYNL 170500Z AUTO 28010G15KT 9SM BKN058 13/12 A2949 RMK AO1 SLP978
SPECI CYNL 170407Z AUTO 29009KT 3SM OVC050 13/12 A2950 RMK AO1 SLP982
SPECI CYNL 170406Z AUTO 29009KT 2 1/2SM OVC052 13/12 A2950 RMK AO1 SLP982
METAR CYNL 170400Z AUTO 29008KT 3SM OVC052 13/12 A2950 RMK AO1 SLP983
METAR CYNL 170300Z AUTO 29008KT 9SM BKN047 14/13 A2949 RMK AO1 SLP982
SPECI CYNL 170210Z AUTO 30009G15KT 8SM OVC030 14/13 A2949 RMK AO1 SLP982
METAR CYNL 170200Z AUTO 30010G16KT 9SM BKN027 OVC033 14/13 A2949 RMK AO1 SLP982
SPECI CYNL 170145Z AUTO 30007KT 4SM SCT020 OVC026 14/14 A2949 RMK AO1 SLP983
SPECI CYNL 170143Z AUTO 30007KT 5SM BKN021 OVC026 14/14 A2949 RMK AO1 SLP983
SPECI CYNL 170142Z AUTO 30006KT 5SM SCT020 OVC026 14/14 A2949 RMK AO1 SLP983
SPECI CYNL 170121Z AUTO 32007KT 3SM BKN021 BKN048 OVC056 14/14 A2949 RMK AO1 SLP984
SPECI CYNL 170118Z AUTO 32006KT 2 1/2SM BKN021 OVC049 14/14 A2949 RMK AO1 SLP984
METAR CYNL 170100Z AUTO 31009G17KT 2 1/2SM SCT028 BKN048 OVC056 14/14 A2950 RMK AO1 SLP985
SPECI CYNL 170058Z AUTO 31009G17KT 2 1/2SM SCT027 OVC048 14/14 A2950 RMK AO1 SLP984
SPECI CYNL 170057Z AUTO 31010G17KT 3SM SCT026 BKN032 OVC048 14/14 A2950 RMK AO1 SLP984
SPECI CYNL 170040Z AUTO 30006KT 3SM FEW004 SCT017 OVC025 14/14 A2950 RMK AO1 SLP985
SPECI CYNL 170039Z AUTO 31007KT 2 1/2SM FEW004 SCT017 OVC025 14/14 A2950 RMK AO1 SLP985
SPECI CYNL 170038Z AUTO 31009KT 2 1/2SM FEW004 BKN017 OVC025 14/14 A2950 RMK AO1 SLP986
SPECI CYNL 170037Z AUTO 31008KT 2 1/2SM VV025 14/14 A2950 RMK AO1 SLP986
SPECI CYNL 170032Z AUTO 31006KT 2SM FEW005 SCT011 OVC018 14/14 A2951 RMK AO1 SLP986
SPECI CYNL 170028Z AUTO 31006KT 1 3/4SM FEW006 SCT012 OVC017 14/14 A2950 RMK AO1 SLP986
SPECI CYNL 170026Z AUTO 32008KT 1 1/4SM FEW006 SCT012 OVC017 14/14 A2950 RMK AO1 SLP986
SPECI CYNL 170025Z AUTO 32008KT 1 1/2SM FEW007 SCT012 BKN017 14/14 A2950 RMK AO1 SLP986
SPECI CYNL 170024Z AUTO 32008KT 1 3/4SM SCT007 BKN012 BKN017 15/14 A2950 RMK AO1 SLP986
SPECI CYNL 170018Z AUTO 31006KT 2 1/2SM SCT006 BKN011 BKN018 15/15 A2951 RMK AO1 SLP986
SPECI CYNL 170009Z AUTO 30005KT 7SM FEW003 SCT007 BKN011 15/15 A2950 RMK AO1 SLP986
SPECI CYNL 170008Z AUTO 31005KT 7SM FEW003 BKN007 BKN020 15/15 A2950 RMK AO1 SLP986
SPECI CYNL 170007Z AUTO 30006KT 6SM FEW003 SCT007 BKN010 15/15 A2950 RMK AO1 SLP986
SPECI CYNL 170001Z AUTO 31005KT 5SM FEW003 BKN008 BKN024 15/15 A2951 RMK AO1 SLP986
METAR CYNL 170000Z AUTO 31005KT 4SM FEW003 SCT008 BKN018 15/15 A2951 RMK AO1 SLP986
SPECI CYNL 162357Z AUTO 31005KT 3SM FEW003 SCT008 BKN020 15/15 A2951 RMK AO1 SLP986
SPECI CYNL 162356Z AUTO 31006KT 2SM FEW003 SCT008 BKN020 15/15 A2951 RMK AO1 SLP986
SPECI CYNL 162355Z AUTO 31007KT 1 1/2SM FEW003 SCT009 BKN019 15/15 A2951 RMK AO1 SLP986
SPECI CYNL 162354Z AUTO 30007KT 1 1/4SM FEW003 SCT009 BKN019 15/15 A2951 RMK AO1 SLP986
SPECI CYNL 162352Z AUTO 30008KT 1 1/2SM FEW005 SCT014 BKN020 15/15 A2951 RMK AO1 SLP986
SPECI CYNL 162351Z AUTO 30009G16KT 1 1/2SM FEW006 SCT015 BKN025 15/15 A2951 RMK AO1 SLP986
SPECI CYNL 162349Z AUTO 30009G16KT 1 3/4SM FEW006 SCT014 BKN021 15/15 A2951 RMK AO1 SLP986
SPECI CYNL 162348Z AUTO 30009G16KT 2SM FEW007 BKN021 BKN026 15/15 A2951 RMK AO1 SLP986
SPECI CYNL 162346Z AUTO 30008G16KT 2SM FEW008 SCT021 BKN025 15/15 A2951 RMK AO1 SLP986
SPECI CYNL 162345Z AUTO 30007G16KT 2SM FEW011 SCT021 OVC029 15/15 A2951 RMK AO1 SLP986
SPECI CYNL 162342Z AUTO 30009G16KT 2 1/2SM FEW010 BKN023 OVC030 15/15 A2950 RMK AO1 SLP986
SPECI CYNL 162330Z AUTO 30009G16KT 3SM FEW011 SCT014 OVC021 15/15 A2950 RMK AO1 SLP985
SPECI CYNL 162327Z AUTO 30010G17KT 2 1/2SM SCT011 BKN021 OVC026 15/15 A2950 RMK AO1 SLP985
SPECI CYNL 162322Z AUTO 30009G17KT 6SM FEW009 SCT012 BKN017 15/14 A2950 RMK AO1 SLP984
SPECI CYNL 162321Z AUTO 30008G17KT 6SM SCT011 BKN014 OVC023 15/15 A2950 RMK AO1 SLP985
SPECI CYNL 162316Z AUTO 29010G15KT 6SM SCT011 BKN016 OVC034 15/15 A2950 RMK AO1 SLP984
METAR CYNL 162300Z AUTO 28011G18KT 5SM SCT010 BKN019 OVC039 15/14 A2950 RMK AO1 SLP985
SPECI CYNL 162251Z AUTO 28009G16KT 9SM SCT009 BKN020 OVC038 15/14 A2951 RMK AO1 SLP986
SPECI CYNL 162250Z AUTO 28009G16KT 9SM SCT009 OVC038 15/14 A2951 RMK AO1 SLP986
SPECI CYNL 162248Z AUTO 28010G17KT 9SM SCT009 BKN024 OVC039 15/14 A2951 RMK AO1 SLP986
SPECI CYNL 162247Z AUTO 29010G17KT 9SM SCT009 BKN025 OVC040 15/14 A2951 RMK AO1 SLP986
SPECI CYNL 162241Z AUTO 29009G19KT 3SM VV031 15/14 A2951 RMK AO1 SLP987
SPECI CYNL 162239Z AUTO 29010G19KT 2 1/2SM VV025 15/14 A2951 RMK AO1 SLP986
SPECI CYNL 162236Z AUTO 28010G19KT 2 1/2SM SCT008 BKN018 OVC022 15/14 A2950 RMK AO1 SLP986
SPECI CYNL 162234Z AUTO 29010G19KT 2 1/2SM SCT008 BKN011 OVC023 15/14 A2950 RMK AO1 SLP985
SPECI CYNL 162231Z AUTO 29011G19KT 4SM SCT008 BKN011 OVC023 15/14 A2950 RMK AO1 SLP985
SPECI CYNL 162225Z AUTO 29012G18KT 6SM BKN008 OVC023 15/14 A2950 RMK AO1 SLP985
SPECI CYNL 162212Z AUTO 28012G19KT 9SM SCT007 BKN011 OVC022 16/14 A2950 RMK AO1 SLP985
SPECI CYNL 162204Z AUTO 27010KT 3SM BKN008 OVC016 16/15 A2951 RMK AO1 SLP987
SPECI CYNL 162201Z AUTO 26006KT 2 1/2SM BKN007 BKN009 OVC016 16/15 A2951 RMK AO1 SLP987
METAR CYNL 162200Z AUTO 26007KT 3SM BKN007 BKN009 OVC016 16/15 A2951 RMK AO1 SLP987
SPECI CYNL 162158Z AUTO 26007KT 2 1/2SM BKN008 OVC009 16/15 A2951 RMK AO1 SLP987
SPECI CYNL 162157Z AUTO 26007KT 1 3/4SM OVC008 16/15 A2951 RMK AO1 SLP986
SPECI CYNL 162145Z AUTO 25010KT 2 1/2SM BKN009 OVC011 16/15 A2951 RMK AO1 SLP985
SPECI CYNL 162134Z AUTO 25008KT 9SM BKN009 OVC013 17/14 A2951 RMK AO1 SLP984
SPECI CYNL 162105Z AUTO 24008KT 9SM BKN014 OVC018 18/14 A2950 RMK AO1 SLP982
METAR CYNL 162100Z AUTO 24009KT 9SM BKN015 OVC018 18/14 A2950 RMK AO1 SLP982
SPECI CYNL 162047Z AUTO 24008KT 9SM OVC015 18/14 A2950 RMK AO1 SLP982
METAR CYNL 162000Z AUTO 22010G17KT 9SM BKN012 OVC016 18/15 A2951 RMK AO1 SLP984
SPECI CYNL 161931Z AUTO 21006KT 9SM OVC014 18/15 A2950 RMK AO1 SLP979
METAR CYNL 161900Z AUTO 18006KT 9SM OVC015 18/14 A2950 RMK AO1 SLP979
SPECI CYNL 161848Z AUTO 19007KT 9SM OVC016 18/14 A2950 RMK AO1 SLP978
METAR CYNL 161800Z AUTO 21008KT 18/14 A2950 RMK AO1 SLP978
METAR CYNL 161700Z AUTO 17008KT 9SM SCT050 BKN100 18/14 A2951 RMK AO1 PRESFR SLP983
METAR CYNL 161600Z AUTO 15008KT 9SM FEW100 17/13 A2954 RMK AO1 SLP993
METAR CYNL 161500Z AUTO 09003KT 9SM CLR 16/13 A2954 RMK AO1 PRESFR SLP993
METAR CYNL 161400Z AUTO 00000KT 9SM FEW037 15/12 A2958 RMK AO1 SLP005
METAR CYNL 161300Z AUTO 10006KT 9SM FEW110 15/12 A2959 RMK AO1 PRESFR SLP010
METAR CYNL 161200Z AUTO 13005KT 9SM FEW150 16/11 A2961 RMK AO1 PRESFR SLP016
METAR CYNL 161100Z AUTO 09003KT 9SM FEW170 SCT200 15/12 A2964 RMK AO1 PRESFR SLP026
METAR CYNL 161000Z AUTO 17007KT 9SM CLR 15/12 A2967 RMK AO1 SLP035
METAR CYNL 160900Z AUTO 11008KT 080V140 9SM FEW066 15/12 A2966 RMK AO1 PRESFR SLP031
SPECI CYNL 160822Z AUTO 13006KT 090V160 9SM FEW009 SCT054 16/12 A2973 RMK AO1 SLP053
METAR CYNL 160800Z AUTO 22003KT 9SM CLR 17/10 A2974 RMK AO1 SLP056
METAR CYNL 160700Z AUTO 11006KT 9SM FEW200 17/10 A2975 RMK AO1 PRESFR SLP059
METAR CYNL 160600Z AUTO 09004KT 9SM CLR 18/10 A2977 RMK AO1 PRESFR SLP065
METAR CYNL 160500Z AUTO 12006KT 9SM CLR 19/10 A2980 RMK AO1 SLP075
METAR CYNL 160400Z AUTO 09008KT 9SM FEW150 20/10 A2980 RMK AO1 SLP075
METAR CYNL 160300Z AUTO 17008KT 9SM FEW210 21/10 A2982 RMK AO1 PRESRR SLP083
SPECI CYNL 160225Z AUTO 17011KT 9SM CLR 20/11 A2981 RMK AO1 WSHFT (02)25 PRESFR SLP082
METAR CYNL 160200Z AUTO 08011KT 9SM CLR 21/12 A2977 RMK AO1 PRESFR SLP069
METAR CYNL 160100Z AUTO 05005KT 9SM FEW170 22/12 A2985 RMK AO1 PRESFR SLP096
METAR CYNL 160000Z AUTO 15004KT 9SM CLR 22/12 A2990 RMK AO1 SLP110
METAR CYNL 152300Z AUTO 18008KT 9SM FEW180 24/12 A2992 RMK AO1 PRESRR SLP116
METAR CYNL 152200Z AUTO 10002KT 9SM CLR 23/12 A2986 RMK AO1 PRESFR SLP098
METAR CYNL 152100Z AUTO 20009G16KT 9SM CLR 23/12 A2992 RMK AO1 PRESFR SLP120
METAR CYNL 152000Z AUTO 19012KT 9SM FEW200 24/11 A2995 RMK AO1 SLP127
METAR CYNL 151900Z AUTO 17009KT 9SM FEW210 25/12 A2995 RMK AO1 SLP127
METAR CYNL 151800Z AUTO 18007KT 9SM CLR 22/12 A2994 RMK AO1 SLP125
METAR CYNL 151700Z AUTO 15005KT 9SM FEW190 21/13 A2994 RMK AO1 PRESFR SLP126
METAR CYNL 151600Z AUTO 18007KT 9SM CLR 19/13 A2996 RMK AO1 SLP134
METAR CYNL 151500Z AUTO 19009KT 9SM FEW110 SCT160 18/13 A2998 RMK AO1 SLP141
METAR CYNL 151400Z AUTO 20008KT 9SM SCT130 18/13 A2998 RMK AO1 SLP140
METAR CYNL 151300Z AUTO 19010KT 9SM BKN086 18/12 A3000 RMK AO1 SLP145
METAR CYNL 151200Z AUTO 21006KT 9SM SCT088 19/10 A2998 RMK AO1 SLP137
METAR CYNL 151100Z AUTO 20008G16KT 9SM FEW086 18/10 A3000 RMK AO1 SLP141
METAR CYNL 151000Z AUTO 19009KT 9SM SCT100 18/09 A3000 RMK AO1 SLP143
METAR CYNL 150900Z AUTO 19010KT 9SM FEW088 18/10 A3001 RMK AO1 PRESFR SLP147
METAR CYNL 150800Z AUTO 18008KT 9SM BKN088 18/10 A3003 RMK AO1 SLP154
METAR CYNL 150700Z AUTO 14005KT 9SM FEW090 SCT170 18/09 A3004 RMK AO1 SLP155
METAR CYNL 150600Z AUTO 16007G15KT 9SM SCT092 19/09 A3004 RMK AO1 PRESFR SLP157
METAR CYNL 150500Z AUTO 17010KT 9SM BKN098 19/10 A3007 RMK AO1 SLP169
METAR CYNL 150400Z AUTO 16006KT 9SM BKN100 20/10 A3007 RMK AO1 SLP170
METAR CYNL 150300Z AUTO 18009KT 9SM BKN110 21/09 A3008 RMK AO1 SLP175
METAR CYNL 150200Z AUTO 14008G15KT 9SM FEW130 23/09 A3007 RMK AO1 SLP171
METAR CYNL 150100Z AUTO 13011KT 9SM FEW140 SCT200 24/09 A3008 RMK AO1 SLP176
METAR CYNL 150000Z AUTO 15014G23KT 9SM CLR 25/09 A3009 RMK AO1 SLP179
METAR CYNL 142300Z AUTO 14011G19KT 9SM FEW100 26/09 A3010 RMK AO1 SLP186
METAR CYNL 142200Z AUTO 14009G16KT 9SM FEW100 25/08 A3011 RMK AO1 SLP191
METAR CYNL 142100Z AUTO 15009G16KT 9SM SCT100 25/09 A3011 RMK AO1 SLP191
SPECI CYNL 142007Z AUTO 15011G17KT 9SM FEW210 26/08 A3011 RMK AO1 WSHFT (20)07 PRESFR SLP191
METAR CYNL 142000Z AUTO 15010G17KT 9SM CLR 26/09 A3011 RMK AO1 PRESFR SLP192
METAR CYNL 141900Z AUTO 15008KT 9SM FEW210 24/09 A3013 RMK AO1 SLP200
METAR CYNL 141800Z AUTO 15005KT 9SM CLR 23/10 A3014 RMK AO1 SLP203
METAR CYNL 141700Z AUTO 17009KT 9SM CLR 20/10 A3014 RMK AO1 SLP204
METAR CYNL 141600Z AUTO 14008KT 9SM CLR 19/09 A3014 RMK AO1 SLP205
METAR CYNL 141500Z AUTO 13007KT 9SM CLR 17/09 A3013 RMK AO1 SLP205
METAR CYNL 141400Z AUTO 16007KT 9SM CLR 14/08 A3014 RMK AO1 SLP209
METAR CYNL 141300Z AUTO 14005KT 9SM CLR 11/08 A3016 RMK AO1 SLP214
METAR CYNL 141200Z AUTO 11005KT 9SM CLR 08/07 A3015 RMK AO1 SLP215
METAR CYNL 141100Z AUTO 07004KT 9SM CLR 06/06 A3015 RMK AO1 SLP214
METAR CYNL 141000Z AUTO 06004KT 9SM CLR 06/06 A3014 RMK AO1 SLP210
METAR CYNL 140900Z AUTO 14003KT 9SM CLR 06/06 A3014 RMK AO1 SLP210
METAR CYNL 140800Z AUTO 09003KT 9SM CLR 06/06 A3013 RMK AO1 SLP208
METAR CYNL 140700Z AUTO 10003KT 9SM CLR 07/06 A3013 RMK AO1 SLP209
METAR CYNL 140600Z AUTO 10004KT 9SM CLR 08/06 A3012 RMK AO1 SLP207
METAR CYNL 140500Z AUTO 10003KT 9SM CLR 08/06 A3010 RMK AO1 SLP201
METAR CYNL 140400Z AUTO 11003KT 9SM CLR 10/07 A3009 RMK AO1 PRESRR SLP196
METAR CYNL 140300Z AUTO 10005KT 9SM CLR 12/07 A3006 RMK AO1 SLP187
METAR CYNL 140200Z AUTO 11006KT 9SM CLR 14/08 A3005 RMK AO1 SLP181
METAR CYNL 140100Z AUTO 10007KT 9SM CLR 15/08 A3003 RMK AO1 SLP175
METAR CYNL 140000Z AUTO 07009KT 040V110 9SM CLR 17/09 A3002 RMK AO1 SLP169
METAR CYNL 132300Z AUTO 34005KT 9SM CLR 18/07 A3001 RMK AO1 SLP165
METAR CYNL 132200Z AUTO 28005KT 9SM CLR 17/07 A3000 RMK AO1 SLP164
METAR CYNL 132100Z AUTO 32003KT 9SM CLR 16/08 A3000 RMK AO1 SLP164
METAR CYNL 132000Z AUTO 32005KT 250V020 9SM CLR 14/08 A2998 RMK AO1 SLP160
SPECI CYNL 131910Z AUTO 31004KT 9SM SCT020 12/07 A2998 RMK AO1 SLP161
SPECI CYNL 131905Z AUTO 34005KT 9SM BKN019 12/07 A2998 RMK AO1 SLP161
SPECI CYNL 131902Z AUTO 00004KT 9SM SCT019 12/08 A2998 RMK AO1 SLP161
METAR CYNL 131900Z AUTO 32004KT 9SM BKN018 12/07 A2998 RMK AO1 SLP161
SPECI CYNL 131859Z AUTO 30005KT 9SM SCT018 13/08 A2998 RMK AO1 SLP161
SPECI CYNL 131858Z AUTO 31004KT 9SM BKN018 13/08 A2998 RMK AO1 SLP161
SPECI CYNL 131856Z AUTO 34004KT 9SM SCT018 12/08 A2998 RMK AO1 SLP161
SPECI CYNL 131818Z AUTO 30005KT 9SM BKN015 11/07 A2997 RMK AO1 SLP159
METAR CYNL 131800Z AUTO 33005KT 9SM BKN013 OVC017 11/07 A2997 RMK AO1 SLP160
METAR CYNL 131700Z AUTO 30005KT 9SM OVC010 09/07 A2995 RMK AO1 PRESRR SLP154
SPECI CYNL 131601Z AUTO 30007KT 9SM FEW006 BKN010 09/07 A2993 RMK AO1 SLP148
METAR CYNL 131600Z AUTO 30007KT 9SM FEW006 BKN009 BKN011 09/07 A2993 RMK AO1 SLP148
SPECI CYNL 131558Z AUTO 32005KT 9SM SCT008 BKN011 09/07 A2993 RMK AO1 SLP147
SPECI CYNL 131557Z AUTO 31006KT 9SM BKN008 BKN210 08/07 A2993 RMK AO1 SLP147
SPECI CYNL 131556Z AUTO 30006KT 9SM SCT007 BKN011 BKN210 08/07 A2993 RMK AO1 SLP147
SPECI CYNL 131555Z AUTO 29006KT 9SM BKN008 08/07 A2993 RMK AO1 SLP147
SPECI CYNL 131543Z AUTO 29007KT 9SM SCT007 BKN011 08/07 A2993 RMK AO1 SLP147
SPECI CYNL 131530Z AUTO 29005KT 9SM BKN007 08/07 A2992 RMK AO1 SLP145
SPECI CYNL 131527Z AUTO 31006KT 9SM FEW006 SCT009 BKN011 08/07 A2992 RMK AO1 SLP145
SPECI CYNL 131515Z AUTO 28006KT 9SM SCT006 BKN009 07/07 A2992 RMK AO1 SLP146
SPECI CYNL 131512Z AUTO 30004KT 9SM SCT006 BKN010 07/07 A2992 RMK AO1 SLP146
METAR CYNL 131500Z AUTO 31005KT 9SM BKN007 07/07 A2992 RMK AO1 SLP144
SPECI CYNL 131452Z AUTO 32004KT 9SM BKN007 07/07 A2992 RMK AO1 SLP144
SPECI CYNL 131451Z AUTO 31003KT 9SM SCT007 BKN010 07/07 A2992 RMK AO1 SLP144
METAR CYNL 131400Z AUTO 32005KT 6SM FEW006 SCT011 OVC048 07/06 A2990 RMK AO1 SLP139
SPECI CYNL 131358Z AUTO 32004KT 6SM SCT006 OVC048 07/06 A2990 RMK AO1 SLP139
SPECI CYNL 131349Z AUTO 30004KT 7SM SCT005 BKN010 OVC044 07/07 A2990 RMK AO1 SLP138
SPECI CYNL 131340Z AUTO 32003KT 7SM BKN007 OVC047 07/07 A2989 RMK AO1 SLP137
SPECI CYNL 131336Z AUTO 32004KT 9SM SCT007 BKN023 OVC044 07/07 A2989 RMK AO1 SLP137
SPECI CYNL 131335Z AUTO 33004KT 8SM BKN007 OVC046 07/06 A2989 RMK AO1 SLP136
SPECI CYNL 131333Z AUTO 33004KT 7SM SCT007 BKN023 OVC046 07/07 A2989 RMK AO1 SLP136
SPECI CYNL 131330Z AUTO 33002KT 7SM BKN007 BKN038 OVC044 07/06 A2989 RMK AO1 SLP137
SPECI CYNL 131326Z AUTO 32004KT 7SM VV030 07/06 A2989 RMK AO1 SLP137
SPECI CYNL 131325Z AUTO 32003KT 8SM VV027 07/06 A2989 RMK AO1 SLP137
SPECI CYNL 131323Z AUTO 32004KT 8SM VV017 06/06 A2989 RMK AO1 SLP137
SPECI CYNL 131322Z AUTO 32003KT 8SM VV014 06/06 A2989 RMK AO1 SLP137
METAR CYNL 131300Z AUTO 31003KT 8SM BKN005 OVC008 06/06 A2989 RMK AO1 SLP134
SPECI CYNL 131249Z AUTO 30004KT 9SM BKN005 OVC008 06/06 A2988 RMK AO1 SLP133
SPECI CYNL 131248Z AUTO 29004KT 9SM BKN004 OVC008 06/06 A2988 RMK AO1 SLP133
SPECI CYNL 131246Z AUTO 29003KT 9SM BKN005 OVC008 06/06 A2988 RMK AO1 SLP133
SPECI CYNL 131245Z AUTO 29003KT 9SM BKN004 BKN008 06/06 A2988 RMK AO1 SLP133
SPECI CYNL 131230Z AUTO 31003KT 9SM VV007 06/06 A2988 RMK AO1 SLP131
SPECI CYNL 131228Z AUTO 31002KT 9SM FEW005 SCT008 BKN010 06/06 A2987 RMK AO1 SLP131
SPECI CYNL 131225Z AUTO 31003KT 9SM FEW005 BKN009 06/06 A2987 RMK AO1 SLP130
SPECI CYNL 131219Z AUTO 32004KT 9SM FEW005 SCT009 BKN014 06/06 A2987 RMK AO1 SLP130
SPECI CYNL 131209Z AUTO 33002KT 9SM FEW006 SCT012 BKN043 06/06 A2987 RMK AO1 SLP129
SPECI CYNL 131206Z AUTO 34004KT 9SM FEW006 SCT013 BKN029 06/06 A2987 RMK AO1 SLP129
SPECI CYNL 131204Z AUTO 33004KT 9SM FEW006 SCT013 BKN030 06/06 A2987 RMK AO1 SLP129
SPECI CYNL 131203Z AUTO 33004KT 9SM FEW006 BKN013 OVC043 06/06 A2987 RMK AO1 SLP129
METAR CYNL 131200Z AUTO 33003KT 9SM VV024 06/06 A2987 RMK AO1 SLP129
SPECI CYNL 131159Z AUTO 34004KT 9SM VV027 06/06 A2987 RMK AO1 SLP129
SPECI CYNL 131150Z AUTO 33004KT 8SM VV040 06/06 A2987 RMK AO1 SLP128
SPECI CYNL 131127Z AUTO 32004KT 9SM VV009 06/06 A2986 RMK AO1 SLP127
SPECI CYNL 131126Z AUTO 31003KT 9SM VV012 06/06 A2986 RMK AO1 SLP126
SPECI CYNL 131123Z AUTO 31002KT 9SM VV020 06/06 A2986 RMK AO1 SLP126
SPECI CYNL 131115Z AUTO 32003KT 9SM FEW003 BKN006 BKN011 06/06 A2986 RMK AO1 SLP126
SPECI CYNL 131114Z AUTO 32003KT 9SM VV018 06/06 A2986 RMK AO1 SLP126
METAR CYNL 131100Z AUTO 33003KT 6SM SCT004 BKN005 OVC047 06/06 A2985 RMK AO1 SLP123
SPECI CYNL 131058Z AUTO 32003KT 6SM BKN005 OVC047 06/06 A2985 RMK AO1 SLP123
SPECI CYNL 131010Z AUTO 30002KT 7SM OVC004 06/06 A2984 RMK AO1 SLP120
METAR CYNL 131000Z AUTO 31002KT 7SM OVC005 06/06 A2984 RMK AO1 SLP119
SPECI CYNL 130913Z AUTO 30003KT 8SM SCT004 OVC006 06/06 A2983 RMK AO1 SLP116
METAR CYNL 130900Z AUTO 29004KT 9SM BKN003 OVC008 06/06 A2983 RMK AO1 SLP116
METAR CYNL 130800Z AUTO 32002KT 8SM BKN004 BKN028 OVC038 06/06 A2982 RMK AO1 SLP110
SPECI CYNL 130747Z AUTO 33003KT 6SM BKN004 OVC039 06/06 A2981 RMK AO1 SLP110
SPECI CYNL 130745Z AUTO 34004KT 5SM VV024 06/06 A2981 RMK AO1 SLP110
SPECI CYNL 130743Z AUTO 35004KT 5SM VV029 06/06 A2981 RMK AO1 SLP110
SPECI CYNL 130741Z AUTO 34004KT 5SM VV031 06/06 A2981 RMK AO1 SLP110
SPECI CYNL 130738Z AUTO 34004KT 5SM SCT004 BKN029 OVC043 06/06 A2981 RMK AO1 SLP110
SPECI CYNL 130702Z AUTO 33004KT 290V010 9SM SCT005 BKN047 OVC060 06/06 A2982 RMK AO1 SLP110
METAR CYNL 130700Z AUTO 34004KT 9SM SCT006 BKN023 BKN046 06/06 A2982 RMK AO1 SLP111
SPECI CYNL 130658Z AUTO 33003KT 8SM SCT006 BKN022 BKN047 06/06 A2982 RMK AO1 SLP112
SPECI CYNL 130621Z AUTO 33004KT 9SM FEW007 SCT010 OVC037 06/06 A2982 RMK AO1 SLP111
METAR CYNL 130600Z AUTO 30004KT 9SM SCT004 BKN013 OVC046 06/06 A2981 RMK AO1 SLP111
SPECI CYNL 130558Z AUTO 30005KT 9SM SCT004 BKN012 OVC047 06/06 A2981 RMK AO1 SLP111
SPECI CYNL 130556Z AUTO 29003KT 9SM SCT004 BKN009 BKN013 06/06 A2981 RMK AO1 SLP109
SPECI CYNL 130537Z AUTO 29005KT 9SM BKN004 BKN008 OVC044 06/06 A2981 RMK AO1 SLP110
METAR CYNL 130500Z AUTO 33003KT 9SM BKN007 BKN046 06/06 A2981 RMK AO1 SLP109
SPECI CYNL 130458Z AUTO 34003KT 9SM VV008 06/06 A2980 RMK AO1 SLP108
SPECI CYNL 130454Z AUTO 34002KT 9SM VV013 06/06 A2981 RMK AO1 SLP108
SPECI CYNL 130452Z AUTO 33003KT 8SM VV017 06/06 A2981 RMK AO1 SLP109
SPECI CYNL 130446Z AUTO 32003KT 9SM SCT006 BKN025 BKN046 06/06 A2981 RMK AO1 SLP110
SPECI CYNL 130445Z AUTO 32003KT 9SM SCT006 BKN032 06/06 A2981 RMK AO1 SLP110
SPECI CYNL 130443Z AUTO 32003KT 9SM SCT006 BKN025 06/06 A2981 RMK AO1 SLP110
SPECI CYNL 130430Z AUTO 31004KT 9SM BKN006 OVC045 06/06 A2981 RMK AO1 SLP110
SPECI CYNL 130414Z AUTO 33004KT 6SM SCT006 OVC045 06/06 A2981 RMK AO1 SLP108
SPECI CYNL 130405Z AUTO 33004KT 6SM VV046 06/06 A2980 RMK AO1 SLP108
METAR CYNL 130400Z AUTO 32002KT 7SM BKN006 OVC047 06/06 A2980 RMK AO1 SLP108
METAR CYNL 130300Z AUTO 33003KT 6SM BKN007 OVC017 06/06 A2980 RMK AO1 SLP105
SPECI CYNL 130204Z AUTO 28002KT 9SM SCT005 BKN008 BKN022 06/06 A2979 RMK AO1 SLP103
METAR CYNL 130200Z AUTO 00000KT 8SM SCT007 BKN022 BKN030 06/06 A2979 RMK AO1 SLP103
SPECI CYNL 130149Z AUTO 33002KT 8SM FEW008 BKN022 BKN028 06/06 A2979 RMK AO1 SLP102
SPECI CYNL 130147Z AUTO 31002KT 8SM VV023 06/06 A2979 RMK AO1 SLP102
SPECI CYNL 130142Z AUTO 00000KT 7SM VV029 06/06 A2979 RMK AO1 SLP101
SPECI CYNL 130134Z AUTO 33002KT 6SM VV030 06/06 A2979 RMK AO1 SLP101
SPECI CYNL 130129Z AUTO 00000KT 5SM VV025 06/06 A2979 RMK AO1 SLP101
SPECI CYNL 130128Z AUTO 00000KT 5SM SCT009 BKN022 BKN030 06/06 A2979 RMK AO1 SLP101
SPECI CYNL 130126Z AUTO 00000KT 5SM BKN009 OVC052 06/06 A2979 RMK AO1 SLP101
SPECI CYNL 130125Z AUTO 00000KT 5SM SCT009 BKN022 OVC052 06/06 A2979 RMK AO1 SLP101
SPECI CYNL 130122Z AUTO 00003KT 6SM BKN009 OVC052 06/06 A2979 RMK AO1 SLP100
SPECI CYNL 130120Z AUTO 35003KT 7SM SCT009 BKN022 OVC052 06/06 A2979 RMK AO1 SLP100
SPECI CYNL 130106Z AUTO 35003KT 9SM FEW009 SCT031 OVC054 06/06 A2979 RMK AO1 SLP101
METAR CYNL 130100Z AUTO 35003KT 8SM FEW019 SCT032 OVC054 06/06 A2979 RMK AO1 SLP101
SPECI CYNL 130039Z AUTO 03003KT 7SM FEW008 SCT019 BKN031 06/06 A2979 RMK AO1 SLP101
SPECI CYNL 130036Z AUTO 03005KT 8SM VV024 06/06 A2979 RMK AO1 SLP101
SPECI CYNL 130035Z AUTO 03005KT 7SM FEW008 SCT019 BKN028 06/06 A2979 RMK AO1 SLP101
SPECI CYNL 130034Z AUTO 02004KT 7SM FEW008 SCT027 OVC043 06/06 A2979 RMK AO1 SLP101
SPECI CYNL 130033Z AUTO 01002KT 7SM FEW012 BKN030 OVC046 06/06 A2979 RMK AO1 SLP100
SPECI CYNL 130030Z AUTO 01003KT 8SM FEW007 BKN027 BKN037 06/06 A2979 RMK AO1 SLP100
SPECI CYNL 130029Z AUTO 02003KT 7SM VV030 06/06 A2979 RMK AO1 SLP100
SPECI CYNL 130028Z AUTO 03003KT 7SM VV029 06/06 A2979 RMK AO1 SLP100
SPECI CYNL 130027Z AUTO 03004KT 7SM VV030 06/06 A2979 RMK AO1 SLP100
SPECI CYNL 130021Z AUTO 02003KT 6SM SCT007 BKN028 BKN035 06/06 A2979 RMK AO1 SLP100
SPECI CYNL 130010Z AUTO 02004KT 3SM VV030 06/06 A2979 RMK AO1 SLP101
SPECI CYNL 130008Z AUTO 02005KT 3SM SCT006 BKN010 OVC031 06/06 A2979 RMK AO1 SLP100
SPECI CYNL 130007Z AUTO 02005KT 3SM BKN006 OVC031 06/06 A2979 RMK AO1 SLP100
SPECI CYNL 130004Z AUTO 01004KT 2 1/2SM BKN006 BKN010 OVC030 06/06 A2979 RMK AO1 SLP101
SPECI CYNL 130002Z AUTO 01005KT 3SM BKN006 BKN010 OVC029 06/06 A2979 RMK AO1 SLP101
METAR CYNL 130000Z AUTO 01004KT 4SM SCT006 BKN010 OVC029 06/06 A2979 RMK AO1 SLP101
SPECI CYNL 122351Z AUTO 01004KT 6SM SCT006 BKN011 BKN014 06/06 A2979 RMK AO1 SLP101
SPECI CYNL 122339Z AUTO 01004KT 7SM BKN007 BKN013 OVC025 06/05 A2979 RMK AO1 SLP101
SPECI CYNL 122337Z AUTO 01003KT 9SM SCT007 BKN010 BKN013 06/06 A2979 RMK AO1 SLP101
METAR CYNL 122300Z AUTO 00005KT 9SM BKN007 BKN008 OVC011 06/05 A2978 RMK AO1 SLP099
METAR CYNL 122200Z AUTO 35006KT 9SM BKN007 OVC010 06/06 A2978 RMK AO1 SLP098
SPECI CYNL 122129Z AUTO 01005KT 9SM BKN006 OVC010 06/06 A2978 RMK AO1 SLP096
SPECI CYNL 122124Z AUTO 03005KT 9SM SCT006 OVC010 07/06 A2978 RMK AO1 SLP096
METAR CYNL 122100Z AUTO 03005KT 8SM BKN007 OVC010 07/06 A2978 RMK AO1 SLP096
METAR CYNL 122000Z AUTO 04005KT 7SM BKN006 OVC008 06/06 A2977 RMK AO1 SLP093
METAR CYNL 121900Z AUTO 05004KT 8SM OVC005 06/05 A2977 RMK AO1 SLP093
SPECI CYNL 121817Z AUTO 06003KT 5SM BKN005 OVC025 05/05 A2977 RMK AO1 SLP092
SPECI CYNL 121807Z AUTO 09003KT 3SM OVC004 05/05 A2977 RMK AO1 SLP093
METAR CYNL 121800Z AUTO 07005KT 2 1/2SM BKN004 OVC009 05/05 A2977 RMK AO1 SLP092
SPECI CYNL 121756Z AUTO 08004KT 2SM BKN004 OVC009 05/05 A2977 RMK AO1 SLP092
SPECI CYNL 121748Z AUTO 09004KT 1 1/2SM BKN004 BKN007 OVC009 05/05 A2977 RMK AO1 SLP092
SPECI CYNL 121745Z AUTO 08005KT 1 3/4SM BKN005 OVC009 05/05 A2977 RMK AO1 SLP092
SPECI CYNL 121738Z AUTO 08005KT 2 1/2SM BKN005 OVC009 05/05 A2977 RMK AO1 SLP092
SPECI CYNL 121736Z AUTO 08005KT 2SM BKN004 BKN006 OVC008 05/05 A2977 RMK AO1 SLP092
SPECI CYNL 121735Z AUTO 08005KT 1 3/4SM BKN004 OVC006 05/05 A2977 RMK AO1 SLP092
SPECI CYNL 121734Z AUTO 08005KT 1 3/4SM BKN005 OVC007 05/05 A2977 RMK AO1 SLP093
SPECI CYNL 121731Z AUTO 08006KT 1 1/2SM OVC004 05/05 A2977 RMK AO1 SLP093
SPECI CYNL 121728Z AUTO 08005KT 1 1/2SM OVC005 05/05 A2977 RMK AO1 SLP093
SPECI CYNL 121719Z AUTO 06005KT 1 1/4SM OVC005 05/05 A2977 RMK AO1 SLP092
SPECI CYNL 121709Z AUTO 06004KT 1 3/4SM OVC005 05/05 A2976 RMK AO1 SLP091
METAR CYNL 121700Z AUTO 08005KT 2 1/2SM BKN005 OVC008 05/05 A2977 RMK AO1 SLP091
SPECI CYNL 121659Z AUTO 08005KT 2 1/2SM BKN005 OVC008 05/05 A2977 RMK AO1 SLP091
SPECI CYNL 121658Z AUTO 08004KT 3SM BKN005 OVC008 05/05 A2977 RMK AO1 SLP091
SPECI CYNL 121656Z AUTO 09004KT 2 1/2SM BKN005 OVC008 05/05 A2977 RMK AO1 SLP091
METAR CYNL 121600Z AUTO 07007KT 3SM OVC005 05/05 A2977 RMK AO1 SLP092
SPECI CYNL 121547Z AUTO 08006KT 6SM OVC005 05/05 A2977 RMK AO1 SLP091
METAR CYNL 121500Z AUTO 08006KT 5SM OVC003 05/05 A2976 RMK AO1 SLP088
METAR CYNL 121400Z AUTO 08009KT 7SM BKN004 OVC005 06/06 A2975 RMK AO1 SLP085
SPECI CYNL 121334Z AUTO 08006KT 4SM OVC004 06/06 A2975 RMK AO1 SLP084
SPECI CYNL 121331Z AUTO 07006KT 4SM SCT003 OVC005 06/06 A2975 RMK AO1 SLP084
METAR CYNL 121300Z AUTO 05005KT 6SM OVC003 06/06 A2976 RMK AO1 SLP085
METAR CYNL 121200Z AUTO 08006KT 7SM OVC003 06/06 A2976 RMK AO1 SLP085
METAR CYNL 121100Z AUTO 10005KT 8SM OVC003 06/06 A2976 RMK AO1 SLP083
SPECI CYNL 121022Z AUTO 08006KT 5SM BKN004 OVC007 06/06 A2975 RMK AO1 SLP083
METAR CYNL 121000Z AUTO 10008KT 7SM BKN005 OVC007 06/06 A2976 RMK AO1 SLP084
METAR CYNL 120900Z AUTO 09009KT 6SM BKN005 OVC007 07/07 A2976 RMK AO1 SLP085
METAR CYNL 120800Z AUTO 10008KT 6SM BKN006 BKN007 OVC011 08/08 A2977 RMK AO1 SLP088
METAR CYNL 120700Z AUTO 09011KT 9SM OVC005 08/08 A2978 RMK AO1 SLP090
SPECI CYNL 120653Z AUTO 08008KT 9SM OVC005 08/08 A2978 RMK AO1 SLP091
SPECI CYNL 120650Z AUTO 08009KT 9SM BKN004 BKN006 OVC009 08/08 A2978 RMK AO1 SLP091
SPECI CYNL 120627Z AUTO 10008KT 5SM BKN006 BKN018 OVC045 08/08 A2979 RMK AO1 SLP093
SPECI CYNL 120614Z AUTO 10008KT 3SM SCT007 BKN020 BKN031 09/09 A2979 RMK AO1 SLP094
SPECI CYNL 120613Z AUTO 10009KT 2 1/2SM SCT008 BKN020 BKN031 09/09 A2979 RMK AO1 SLP094
SPECI CYNL 120606Z AUTO 10007KT 3SM SCT008 BKN022 OVC046 09/09 A2979 RMK AO1 SLP095
SPECI CYNL 120601Z AUTO 10010KT 2 1/2SM VV042 09/09 A2979 RMK AO1 SLP094
METAR CYNL 120600Z AUTO 10009KT 3SM VV044 09/09 A2979 RMK AO1 SLP094
SPECI CYNL 120559Z AUTO 10009KT 3SM VV042 09/09 A2979 RMK AO1 SLP094
SPECI CYNL 120553Z AUTO 11007KT 2SM VV030 09/09 A2979 RMK AO1 SLP095
SPECI CYNL 120543Z AUTO 11008KT 2 1/2SM FEW006 SCT008 OVC019 09/09 A2980 RMK AO1 SLP096
SPECI CYNL 120542Z AUTO 11007KT 3SM FEW006 SCT008 OVC019 09/09 A2980 RMK AO1 SLP096
SPECI CYNL 120537Z AUTO 11007KT 2 1/2SM FEW008 BKN018 OVC028 09/09 A2980 RMK AO1 SLP096
SPECI CYNL 120533Z AUTO 11005KT 3SM FEW008 BKN019 OVC028 09/09 A2980 RMK AO1 SLP096
SPECI CYNL 120532Z AUTO 11006KT 2 1/2SM FEW008 BKN019 OVC028 09/09 A2979 RMK AO1 SLP096
SPECI CYNL 120531Z AUTO 11006KT 2 1/2SM FEW010 BKN018 OVC028 09/09 A2979 RMK AO1 SLP096
SPECI CYNL 120524Z AUTO 11006KT 3SM FEW009 SCT018 BKN023 09/09 A2979 RMK AO1 SLP095
SPECI CYNL 120512Z AUTO 11008KT 4SM BKN023 OVC032 09/08 A2980 RMK AO1 SLP096
METAR CYNL 120500Z AUTO 11008KT 5SM SCT023 OVC033 09/08 A2980 RMK AO1 SLP097
SPECI CYNL 120435Z AUTO 11008KT 9SM FEW021 SCT029 BKN036 09/08 A2980 RMK AO1 SLP098
SPECI CYNL 120424Z AUTO 11007KT 9SM FEW020 BKN027 OVC041 09/08 A2980 RMK AO1 SLP099
METAR CYNL 120400Z AUTO 11008KT 8SM BKN034 OVC046 10/08 A2981 RMK AO1 SLP099
METAR CYNL 120300Z AUTO 10004KT 9SM OVC035 11/08 A2980 RMK AO1 SLP098
METAR CYNL 120200Z AUTO 12007KT 9SM OVC033 12/08 A2981 RMK AO1 SLP101
METAR CYNL 120100Z AUTO 10010KT 9SM BKN038 13/07 A2981 RMK AO1 SLP098
METAR CYNL 120000Z AUTO 10004KT 9SM OVC037 13/07 A2980 RMK AO1 SLP097
METAR CYNL 112300Z AUTO 10005KT 9SM OVC035 13/07 A2981 RMK AO1 SLP100
METAR CYNL 112200Z AUTO 10009KT 9SM OVC031 13/07 A2981 RMK AO1 SLP100
SPECI CYNL 112141Z AUTO 10008KT 9SM OVC030 12/07 A2981 RMK AO1 PRESFR SLP100
METAR CYNL 112100Z AUTO 10012KT 9SM OVC027 13/07 A2982 RMK AO1 PRESFR SLP101
SPECI CYNL 112038Z AUTO 11012G19KT 9SM OVC025 12/07 A2983 RMK AO1 PRESFR SLP103
METAR CYNL 112000Z AUTO 11014G20KT 9SM OVC023 12/07 A2984 RMK AO1 PRESFR SLP109
METAR CYNL 111900Z AUTO 12011G20KT 9SM OVC015 11/07 A2986 RMK AO1 SLP118
SPECI CYNL 111854Z AUTO 12011G20KT 9SM OVC015 10/07 A2986 RMK AO1 SLP118
METAR CYNL 111800Z AUTO 12015G21KT 9SM OVC011 10/07 A2987 RMK AO1 SLP120
METAR CYNL 111700Z AUTO 11009G21KT 9SM OVC011 10/07 A2986 RMK AO1 SLP116
METAR CYNL 111600Z AUTO 09013G20KT 9SM OVC011 09/06 A2986 RMK AO1 SLP118
METAR CYNL 111500Z AUTO 11018G24KT 9SM OVC011 09/06 A2988 RMK AO1 PRESFR SLP124
METAR CYNL 111400Z AUTO 10011G18KT 9SM OVC011 08/06 A2991 RMK AO1 SLP134
METAR CYNL 111300Z AUTO 10015KT 9SM OVC013 08/05 A2992 RMK AO1 SLP138
METAR CYNL 111200Z AUTO 10012KT 9SM OVC012 08/06 A2992 RMK AO1 SLP139
METAR CYNL 111100Z AUTO 09011KT 9SM OVC014 08/07 A2994 RMK AO1 PRESFR SLP143
SPECI CYNL 111052Z AUTO 09010KT 9SM OVC014 08/07 A2994 RMK AO1 SLP144
METAR CYNL 111000Z AUTO 10008KT 9SM OVC016 09/07 A2996 RMK AO1 SLP151
METAR CYNL 110900Z AUTO 10011KT 9SM OVC019 10/06 A2996 RMK AO1 PRESFR SLP152
METAR CYNL 110800Z AUTO 11007KT 9SM OVC021 10/07 A3000 RMK AO1 SLP163
SPECI CYNL 110701Z AUTO 10007KT 9SM BKN024 OVC086 11/07 A3001 RMK AO1 SLP165
METAR CYNL 110700Z AUTO 10007KT 9SM BKN025 OVC086 11/07 A3001 RMK AO1 SLP165
SPECI CYNL 110655Z AUTO 11008KT 9SM BKN025 OVC086 11/07 A3001 RMK AO1 PRESFR SLP167
SPECI CYNL 110653Z AUTO 11007KT 9SM BKN024 OVC086 11/07 A3001 RMK AO1 PRESFR SLP168
SPECI CYNL 110643Z AUTO 11008KT 9SM BKN026 OVC086 11/07 A3001 RMK AO1 PRESFR SLP167
SPECI CYNL 110624Z AUTO 09008KT 9SM SCT027 OVC088 11/08 A3000 RMK AO1 PRESFR SLP165
METAR CYNL 110600Z AUTO 09008KT 9SM OVC027 12/08 A3000 RMK AO1 PRESFR SLP164
METAR CYNL 110500Z AUTO 11009G16KT 9SM OVC026 12/08 A3003 RMK AO1 SLP174
METAR CYNL 110400Z AUTO 10009KT 9SM OVC025 12/08 A3004 RMK AO1 SLP177
SPECI CYNL 110349Z AUTO 10007KT 9SM OVC025 12/08 A3004 RMK AO1 SLP179
SPECI CYNL 110311Z AUTO 11008KT 9SM BKN024 OVC028 13/08 A3004 RMK AO1 SLP180
METAR CYNL 110300Z AUTO 12007KT 9SM OVC025 13/08 A3005 RMK AO1 SLP184
SPECI CYNL 110246Z AUTO 12006KT 9SM BKN025 OVC032 13/08 A3006 RMK AO1 SLP185
SPECI CYNL 110221Z AUTO 11010G16KT 9SM OVC024 13/07 A3005 RMK AO1 SLP182
METAR CYNL 110200Z AUTO 12008KT 9SM BKN026 OVC034 13/08 A3005 RMK AO1 SLP184
SPECI CYNL 110133Z AUTO 11009KT 9SM BKN025 OVC032 12/07 A3005 RMK AO1 SLP184
METAR CYNL 110100Z AUTO 10010KT 9SM OVC022 12/07 A3006 RMK AO1 SLP186
METAR CYNL 110000Z AUTO 11013G21KT 9SM OVC023 13/08 A3007 RMK AO1 SLP189
SPECI CYNL 102325Z AUTO 11013G20KT 9SM OVC024 13/07 A3007 RMK AO1 PRESFR SLP190
METAR CYNL 102300Z AUTO 10014G20KT 9SM OVC025 13/07 A3008 RMK AO1 PRESFR SLP193
SPECI CYNL 102257Z AUTO 09015G20KT 9SM OVC025 13/07 A3007 RMK AO1 SLP193
METAR CYNL 102200Z AUTO 10016G21KT 9SM OVC019 12/06 A3010 RMK AO1 SLP203
METAR CYNL 102100Z AUTO 08016KT 9SM BKN018 11/06 A3011 RMK AO1 SLP208
SPECI CYNL 102018Z AUTO 11012G18KT 9SM BKN020 12/07 A3012 RMK AO1 PRESFR SLP209
SPECI CYNL 102008Z AUTO 10013KT 9SM SCT020 BKN092 12/07 A3012 RMK AO1 PRESFR SLP208
METAR CYNL 102000Z AUTO 10013G19KT 9SM BKN020 12/06 A3013 RMK AO1 PRESFR SLP211
METAR CYNL 101900Z AUTO 11012G17KT 9SM OVC020 11/05 A3015 RMK AO1 SLP219
SPECI CYNL 101813Z AUTO 11009G16KT 9SM BKN021 BKN082 11/05 A3015 RMK AO1 SLP220
METAR CYNL 101800Z AUTO 10011G17KT 9SM FEW021 BKN084 10/05 A3016 RMK AO1 SLP223
METAR CYNL 101700Z AUTO 10013KT 9SM FEW043 BKN088 08/04 A3018 RMK AO1 SLP231
METAR CYNL 101600Z AUTO 10013KT 9SM FEW043 BKN096 08/04 A3018 RMK AO1 SLP230
METAR CYNL 101500Z AUTO 10013G19KT 9SM SCT110 07/04 A3020 RMK AO1 SLP234
METAR CYNL 101400Z AUTO 08008KT 9SM FEW011 SCT039 07/05 A3019 RMK AO1 PRESFR SLP232
METAR CYNL 101300Z AUTO 11007KT 9SM SCT043 07/04 A3022 RMK AO1 SLP239
METAR CYNL 101200Z AUTO 11008KT 9SM CLR 06/04 A3022 RMK AO1 SLP238
METAR CYNL 101100Z AUTO 10007KT 9SM CLR 06/04 A3022 RMK AO1 PRESFR SLP238
METAR CYNL 101000Z AUTO 08006KT 9SM CLR 07/04 A3024 RMK AO1 SLP246
METAR CYNL 100900Z AUTO 12004KT 9SM SCT190 06/03 A3025 RMK AO1 SLP251
METAR CYNL 100800Z AUTO 09006KT 9SM CLR 07/02 A3025 RMK AO1 SLP250
METAR CYNL 100700Z AUTO 08006KT 9SM CLR 08/02 A3024 RMK AO1 SLP247
METAR CYNL 100600Z AUTO 09003KT 9SM CLR 09/02 A3025 RMK AO1 SLP248
METAR CYNL 100500Z AUTO 09005KT 9SM CLR 10/01 A3025 RMK AO1 SLP249
METAR CYNL 100400Z AUTO 08004KT 9SM CLR 11/02 A3024 RMK AO1 SLP245
METAR CYNL 100300Z AUTO 10004KT 9SM CLR 13/02 A3024 RMK AO1 SLP241
METAR CYNL 100200Z AUTO 10009KT 9SM CLR 14/M00 A3024 RMK AO1 SLP244
METAR CYNL 100100Z AUTO 09009KT 9SM CLR 15/00 A3026 RMK AO1 SLP250
METAR CYNL 100000Z AUTO 10009KT 9SM CLR 15/01 A3026 RMK AO1 SLP255
METAR CYNL 092300Z AUTO 05010KT 9SM CLR 15/01 A3026 RMK AO1 SLP256
METAR CYNL 092200Z AUTO 08007KT 9SM CLR 15/02 A3028 RMK AO1 SLP264
METAR CYNL 092100Z AUTO 09005KT 9SM CLR 14/01 A3030 RMK AO1 SLP272
METAR CYNL 092000Z AUTO 09009KT 9SM CLR 14/01 A3030 RMK AO1 SLP273
METAR CYNL 091900Z AUTO 11010KT 070V140 9SM CLR 13/01 A3031 RMK AO1 SLP276
METAR CYNL 091800Z AUTO 12010KT 090V150 9SM CLR 13/02 A3031 RMK AO1 SLP275
METAR CYNL 091700Z AUTO 10008KT 9SM CLR 12/02 A3031 RMK AO1 SLP276
METAR CYNL 091600Z AUTO 07006KT 9SM CLR 12/04 A3031 RMK AO1 SLP275
METAR CYNL 091500Z AUTO 14005KT 100V170 9SM CLR 11/04 A3032 RMK AO1 SLP278
METAR CYNL 091400Z AUTO 15006KT 9SM CLR 08/04 A3033 RMK AO1 SLP280
SPECI CYNL 091329Z AUTO 15005KT 9SM SCT002 07/06 A3033 RMK AO1 SLP282
SPECI CYNL 091327Z AUTO 15004KT 9SM SCT002 BKN004 07/06 A3034 RMK AO1 SLP283
SPECI CYNL 091318Z AUTO 00000KT 5SM OVC002 06/06 A3034 RMK AO1 SLP284
SPECI CYNL 091316Z AUTO 16002KT 2 1/2SM OVC002 06/06 A3034 RMK AO1 SLP284
SPECI CYNL 091310Z AUTO 13003KT 3SM OVC002 05/05 A3034 RMK AO1 SLP285
SPECI CYNL 091309Z AUTO 14003KT 1SM OVC002 05/05 A3034 RMK AO1 SLP285
SPECI CYNL 091307Z AUTO 17003KT 1/4SM OVC002 05/05 A3034 RMK AO1 SLP285
SPECI CYNL 091305Z AUTO 16003KT 1/8SM OVC002 05/05 A3034 RMK AO1 SLP285
SPECI CYNL 091303Z AUTO 16002KT 1/4SM OVC002 05/05 A3034 RMK AO1 SLP286
METAR CYNL 091300Z AUTO 16003KT 1/8SM OVC002 05/05 A3034 RMK AO1 SLP286
SPECI CYNL 091259Z AUTO 15003KT 1/4SM VV002 05/05 A3034 RMK AO1 SLP285
SPECI CYNL 091206Z AUTO 11004KT 1/8SM OVC002 04/04 A3033 RMK AO1 SLP283
METAR CYNL 091200Z AUTO 10004KT 5/8SM OVC002 04/04 A3033 RMK AO1 SLP283
SPECI CYNL 091156Z AUTO 10003KT 1SM BKN002 OVC004 04/04 A3033 RMK AO1 SLP283
SPECI CYNL 091153Z AUTO 11003KT 3/4SM BKN002 04/04 A3033 RMK AO1 SLP283
SPECI CYNL 091152Z AUTO 10004KT 1SM BKN002 04/04 A3033 RMK AO1 SLP283
SPECI CYNL 091151Z AUTO 10003KT 1 1/4SM BKN003 04/04 A3033 RMK AO1 SLP282
SPECI CYNL 091150Z AUTO 10003KT 2SM BKN003 04/04 A3033 RMK AO1 SLP282
SPECI CYNL 091142Z AUTO 11003KT 9SM BKN003 04/04 A3033 RMK AO1 SLP282
SPECI CYNL 091130Z AUTO 12002KT 5SM FEW003 04/04 A3032 RMK AO1 SLP281
SPECI CYNL 091129Z AUTO 12002KT 3SM CLR 04/04 A3032 RMK AO1 SLP280
SPECI CYNL 091128Z AUTO 11002KT 1 3/4SM CLR 04/04 A3032 RMK AO1 SLP280
SPECI CYNL 091127Z AUTO 11002KT 1SM CLR 04/04 A3032 RMK AO1 SLP280
SPECI CYNL 091126Z AUTO 11002KT 3/4SM CLR 04/04 A3032 RMK AO1 SLP280
SPECI CYNL 091124Z AUTO 00000KT 1 1/4SM CLR 04/04 A3032 RMK AO1 SLP280
SPECI CYNL 091123Z AUTO 00000KT 1 3/4SM CLR 04/04 A3032 RMK AO1 SLP279
SPECI CYNL 091121Z AUTO 00000KT 2 1/2SM CLR 04/04 A3032 RMK AO1 SLP279
SPECI CYNL 091117Z AUTO 00000KT 6SM CLR 03/03 A3032 RMK AO1 SLP279
SPECI CYNL 091116Z AUTO 00000KT 2SM CLR 03/03 A3032 RMK AO1 SLP279
SPECI CYNL 091115Z AUTO 00000KT 1SM CLR 03/03 A3032 RMK AO1 SLP279
SPECI CYNL 091113Z AUTO 00000KT 1/4SM CLR 03/03 A3032 RMK AO1 SLP279
METAR CYNL 091100Z AUTO 00000KT 1/8SM CLR 03/03 A3031 RMK AO1 SLP278
SPECI CYNL 091059Z AUTO 00000KT 1/8SM CLR 03/03 A3031 RMK AO1 SLP278
SPECI CYNL 091056Z AUTO 00000KT 1/2SM CLR 03/03 A3031 RMK AO1 SLP277
SPECI CYNL 091054Z AUTO 00000KT 1 3/4SM CLR 03/03 A3031 RMK AO1 SLP276
SPECI CYNL 091044Z AUTO 00000KT 3SM CLR 02/02 A3031 RMK AO1 SLP277
SPECI CYNL 091042Z AUTO 06003KT 2 1/2SM CLR 02/02 A3031 RMK AO1 SLP277
SPECI CYNL 091041Z AUTO 05003KT 1 3/4SM CLR 02/02 A3031 RMK AO1 SLP277
SPECI CYNL 091039Z AUTO 05002KT 1SM CLR 02/02 A3031 RMK AO1 SLP278
SPECI CYNL 091038Z AUTO 05002KT 3/4SM CLR 02/02 A3031 RMK AO1 SLP278
SPECI CYNL 091016Z AUTO 00000KT 1/4SM CLR 02/02 A3031 RMK AO1 SLP279
SPECI CYNL 091014Z AUTO 00000KT 1/8SM CLR 02/02 A3031 RMK AO1 SLP279
SPECI CYNL 091012Z AUTO 00000KT 1/4SM CLR 02/02 A3031 RMK AO1 SLP280
METAR CYNL 091000Z AUTO 00000KT 1/8SM CLR 02/02 A3031 RMK AO1 SLP279
SPECI CYNL 090944Z AUTO 08002KT 1/8SM CLR 02/02 A3031 RMK AO1 SLP278
SPECI CYNL 090933Z AUTO 07004KT 5/8SM CLR 02/02 A3031 RMK AO1 SLP278
SPECI CYNL 090931Z AUTO 06003KT 1 3/4SM CLR 02/02 A3031 RMK AO1 SLP277
SPECI CYNL 090930Z AUTO 06003KT 2 1/2SM CLR 02/02 A3031 RMK AO1 SLP277
SPECI CYNL 090928Z AUTO 06003KT 3SM CLR 02/02 A3031 RMK AO1 SLP278
SPECI CYNL 090924Z AUTO 06004KT 2SM CLR 02/02 A3031 RMK AO1 SLP279
SPECI CYNL 090923Z AUTO 06004KT 1 3/4SM CLR 02/02 A3031 RMK AO1 SLP279
SPECI CYNL 090922Z AUTO 06004KT 2SM CLR 02/02 A3031 RMK AO1 SLP279
SPECI CYNL 090917Z AUTO 08002KT 3SM CLR 02/02 A3031 RMK AO1 SLP279
SPECI CYNL 090915Z AUTO 08003KT 2 1/2SM CLR 02/02 A3031 RMK AO1 SLP279
METAR CYNL 090900Z AUTO 00000KT 9SM CLR 02/02 A3031 RMK AO1 SLP277
SPECI CYNL 090858Z AUTO 00000KT 4SM CLR 02/02 A3031 RMK AO1 SLP276
SPECI CYNL 090854Z AUTO 00000KT 3/8SM CLR 02/02 A3030 RMK AO1 SLP275
SPECI CYNL 090853Z AUTO 00000KT 1 1/4SM CLR 02/02 A3030 RMK AO1 SLP275
SPECI CYNL 090808Z AUTO 13003KT 9SM CLR 03/03 A3029 RMK AO1 SLP270
SPECI CYNL 090807Z AUTO 13003KT 3/8SM CLR 03/02 A3029 RMK AO1 SLP271
SPECI CYNL 090805Z AUTO 12003KT 1/8SM CLR 03/02 A3029 RMK AO1 SLP271
SPECI CYNL 090804Z AUTO 12003KT 5/8SM CLR 03/02 A3029 RMK AO1 SLP271
METAR CYNL 090800Z AUTO 00000KT 9SM CLR 03/02 A3029 RMK AO1 SLP270
METAR CYNL 090700Z AUTO 09004KT 9SM CLR 03/03 A3028 RMK AO1 SLP267
METAR CYNL 090600Z AUTO 00000KT 9SM CLR 04/02 A3027 RMK AO1 SLP262
METAR CYNL 090500Z AUTO 00000KT 9SM CLR 05/03 A3026 RMK AO1 SLP260
METAR CYNL 090400Z AUTO 00000KT 9SM CLR 08/03 A3025 RMK AO1 SLP256
METAR CYNL 090300Z AUTO 09004KT 9SM CLR 10/03 A3024 RMK AO1 SLP249
METAR CYNL 090200Z AUTO 12005KT 9SM FEW054 11/02 A3023 RMK AO1 SLP246
METAR CYNL 090100Z AUTO 13006KT 090V170 9SM CLR 13/03 A3022 RMK AO1 SLP242
METAR CYNL 090000Z AUTO 13005KT 9SM FEW064 12/03 A3022 RMK AO1 SLP243
METAR CYNL 082300Z AUTO 06010KT 9SM SCT036 BKN062 12/03 A3021 RMK AO1 SLP243
METAR CYNL 082200Z AUTO 11004KT 070V140 9SM FEW041 12/03 A3021 RMK AO1 SLP241
SPECI CYNL 082120Z AUTO 11004KT 060V160 9SM BKN043 12/03 A3020 RMK AO1 SLP239
SPECI CYNL 082119Z AUTO 12004KT 080V170 1 1/2SM BKN044 12/03 A3020 RMK AO1 SLP239
SPECI CYNL 082118Z AUTO 12004KT 080V170 1SM BKN044 12/03 A3020 RMK AO1 SLP239
SPECI CYNL 082116Z AUTO 12003KT 2 1/2SM BKN045 12/03 A3020 RMK AO1 SLP238
METAR CYNL 082100Z AUTO 11004KT 060V160 9SM SCT045 12/03 A3020 RMK AO1 SLP238
SPECI CYNL 082036Z AUTO 14006KT 100V170 5SM SCT038 11/02 A3019 RMK AO1 SLP236
SPECI CYNL 082033Z AUTO 10006KT 070V130 1 3/4SM SCT038 11/02 A3019 RMK AO1 SLP237
METAR CYNL 082000Z AUTO 12006KT 090V160 9SM BKN039 11/03 A3018 RMK AO1 SLP233
METAR CYNL 081900Z AUTO 13004KT 080V180 9SM BKN036 11/03 A3017 RMK AO1 SLP228
METAR CYNL 081800Z AUTO 08006KT 000V160 9SM SCT030 10/03 A3017 RMK AO1 SLP227
SPECI CYNL 081743Z AUTO 13006KT 090V160 9SM SCT027 BKN054 10/03 A3016 RMK AO1 SLP225
SPECI CYNL 081708Z AUTO 11005KT 9SM BKN025 BKN180 09/03 A3015 RMK AO1 SLP223
METAR CYNL 081700Z AUTO 03007KT 350V070 9SM BKN024 BKN180 09/02 A3015 RMK AO1 SLP222
SPECI CYNL 081625Z AUTO 13005KT 9SM BKN022 BKN050 08/03 A3015 RMK AO1 SLP221
SPECI CYNL 081624Z AUTO 11005KT 9SM SCT022 BKN026 BKN050 08/03 A3015 RMK AO1 SLP221
SPECI CYNL 081612Z AUTO 10006KT 060V130 9SM SCT019 BKN049 08/03 A3015 RMK AO1 SLP221
SPECI CYNL 081610Z AUTO 10006KT 060V130 9SM SCT019 BKN027 BKN049 08/03 A3015 RMK AO1 SLP221
METAR CYNL 081600Z AUTO 10006KT 070V140 9SM FEW017 OVC049 08/03 A3015 RMK AO1 SLP221
SPECI CYNL 081525Z AUTO 07004KT 9SM SCT013 OVC047 07/03 A3014 RMK AO1 SLP221
SPECI CYNL 081523Z AUTO 08005KT 9SM SCT013 BKN016 OVC047 07/03 A3014 RMK AO1 SLP221
METAR CYNL 081500Z AUTO 08004KT 9SM OVC012 06/03 A3014 RMK AO1 SLP219
SPECI CYNL 081412Z AUTO 06006KT 9SM OVC010 05/03 A3013 RMK AO1 SLP216
METAR CYNL 081400Z AUTO 06007KT 9SM OVC009 05/02 A3012 RMK AO1 SLP216
METAR CYNL 081300Z AUTO 07006KT 9SM OVC009 04/02 A3011 RMK AO1 PRESRR SLP211
METAR CYNL 081200Z AUTO 07006KT 9SM OVC008 04/02 A3008 RMK AO1 SLP201
SPECI CYNL 081113Z AUTO 06006KT 9SM BKN009 OVC048 03/02 A3007 RMK AO1 SLP199
METAR CYNL 081100Z AUTO 06006KT 9SM SCT009 OVC048 03/02 A3007 RMK AO1 SLP197
SPECI CYNL 081050Z AUTO 06005KT 9SM SCT009 OVC048 04/02 A3007 RMK AO1 SLP195
SPECI CYNL 081044Z AUTO 07006KT 9SM BKN009 OVC048 04/02 A3006 RMK AO1 SLP194
SPECI CYNL 081020Z AUTO 07004KT 9SM BKN010 OVC050 04/02 A3006 RMK AO1 SLP194
METAR CYNL 081000Z AUTO 08005KT 9SM OVC050 04/01 A3006 RMK AO1 SLP192
METAR CYNL 080900Z AUTO 07006KT 9SM OVC052 04/01 A3004 RMK AO1 SLP185
METAR CYNL 080800Z AUTO 07008KT 9SM OVC050 05/01 A3002 RMK AO1 SLP180
METAR CYNL 080700Z AUTO 07008KT 9SM OVC048 05/01 A3001 RMK AO1 SLP175
SPECI CYNL 080609Z AUTO 08008KT 9SM SCT029 BKN047 06/01 A2998 RMK AO1 PRESRR SLP168
METAR CYNL 080600Z AUTO 09007KT 9SM OVC029 06/02 A2998 RMK AO1 PRESRR SLP168
METAR CYNL 080500Z AUTO 05004KT 9SM OVC028 07/02 A2996 RMK AO1 SLP158
METAR CYNL 080400Z AUTO 07004KT 9SM OVC027 07/03 A2995 RMK AO1 PRESRR SLP153
SPECI CYNL 080326Z AUTO 05004KT 9SM OVC029 07/03 A2993 RMK AO1 PRESRR SLP149
METAR CYNL 080300Z AUTO 03005KT 9SM OVC034 07/03 A2993 RMK AO1 PRESRR SLP146
METAR CYNL 080200Z AUTO 03005KT 9SM BKN041 07/04 A2990 RMK AO1 SLP140
METAR CYNL 080100Z AUTO 02004KT 9SM FEW033 BKN042 08/03 A2990 RMK AO1 SLP138
SPECI CYNL 080012Z AUTO 02004KT 9SM FEW014 SCT024 BKN045 08/03 A2988 RMK AO1 PRESRR SLP134
SPECI CYNL 080010Z AUTO 02004KT 7SM VV023 08/03 A2988 RMK AO1 PRESRR SLP134
SPECI CYNL 080006Z AUTO 02005KT 7SM VV028 09/03 A2988 RMK AO1 PRESRR SLP134
METAR CYNL 080000Z AUTO 02004KT 9SM FEW024 BKN045 09/03 A2988 RMK AO1 PRESRR SLP133
METAR CYNL 072300Z AUTO 05005KT 9SM OVC044 09/02 A2986 RMK AO1 PRESRR SLP126
METAR CYNL 072200Z AUTO 06006KT 9SM OVC045 09/02 A2984 RMK AO1 SLP118
METAR CYNL 072100Z AUTO 11002KT 9SM OVC047 09/02 A2983 RMK AO1 SLP115
METAR CYNL 072000Z AUTO 09005KT 9SM OVC052 08/02 A2982 RMK AO1 SLP111
METAR CYNL 071900Z AUTO 11005KT 9SM FEW026 SCT039 BKN052 06/03 A2981 RMK AO1 SLP109
SPECI CYNL 071847Z AUTO 12004KT 9SM FEW016 SCT025 BKN037 07/03 A2981 RMK AO1 SLP109
SPECI CYNL 071846Z AUTO 12004KT 8SM VV028 07/03 A2981 RMK AO1 SLP109
SPECI CYNL 071807Z AUTO 14005KT 100V180 8SM FEW023 BKN035 BKN044 08/03 A2980 RMK AO1 SLP103
SPECI CYNL 071806Z AUTO 14004KT 100V180 8SM VV029 08/03 A2980 RMK AO1 SLP103
METAR CYNL 071800Z AUTO 10002KT 9SM FEW024 SCT037 BKN044 08/03 A2979 RMK AO1 SLP101
SPECI CYNL 071726Z AUTO 00000KT 9SM SCT020 BKN056 08/03 A2978 RMK AO1 SLP098
METAR CYNL 071700Z AUTO 10006KT 070V140 9SM OVC017 08/02 A2978 RMK AO1 SLP098
METAR CYNL 071600Z AUTO 05005KT 9SM OVC015 07/03 A2977 RMK AO1 SLP092
SPECI CYNL 071544Z AUTO 04006KT 9SM OVC015 07/03 A2976 RMK AO1 SLP088
METAR CYNL 071500Z AUTO 08004KT 9SM OVC011 06/02 A2976 RMK AO1 SLP089